<?xml version="1.0" encoding="UTF-8" standalone="no" ?>
<gpx xmlns="http://www.topografix.com/GPX/1/1" xmlns:xsi="http://www.w3.org/2001/XMLSchema-instance" xsi:schemaLocation="http://www.topografix.com/GPX/1/1 http://www.topografix.com/GPX/1/1/gpx.xsd" version="1.1" creator="VisuGPX - https://www.visugpx.com">
  <metadata>
    <name>La vallée du Gabas entre Sedzère et Gabaston</name>
    <desc><![CDATA[Belle randonnée près d\'une belle rivière, sous de beaux chênes et sur de beaux chemins de terre.]]></desc>
  </metadata>
  <trk>
    <name><![CDATA[Tracé actuel: 23 AOU 2012 09:20]]></name>
    <trkseg>
      <trkpt lat="43.36648" lon="-0.19881">
        <ele>276.52</ele>
        <time>2012-08-23T07:20:48Z</time>
      </trkpt>
      <trkpt lat="43.36644" lon="-0.19868">
        <ele>275.56</ele>
        <time>2012-08-23T07:21:37Z</time>
      </trkpt>
      <trkpt lat="43.36633" lon="-0.19861">
        <ele>275.56</ele>
        <time>2012-08-23T07:21:49Z</time>
      </trkpt>
      <trkpt lat="43.36624" lon="-0.19854">
        <ele>276.04</ele>
        <time>2012-08-23T07:21:59Z</time>
      </trkpt>
      <trkpt lat="43.36619" lon="-0.19841">
        <ele>276.04</ele>
        <time>2012-08-23T07:22:09Z</time>
      </trkpt>
      <trkpt lat="43.36618" lon="-0.19825">
        <ele>276.52</ele>
        <time>2012-08-23T07:22:19Z</time>
      </trkpt>
      <trkpt lat="43.36621" lon="-0.19811">
        <ele>276.52</ele>
        <time>2012-08-23T07:22:28Z</time>
      </trkpt>
      <trkpt lat="43.36628" lon="-0.19801">
        <ele>277.96</ele>
        <time>2012-08-23T07:22:38Z</time>
      </trkpt>
      <trkpt lat="43.36629" lon="-0.19787">
        <ele>278.92</ele>
        <time>2012-08-23T07:22:47Z</time>
      </trkpt>
      <trkpt lat="43.36621" lon="-0.19781">
        <ele>278.44</ele>
        <time>2012-08-23T07:22:59Z</time>
      </trkpt>
      <trkpt lat="43.36613" lon="-0.19773">
        <ele>279.4</ele>
        <time>2012-08-23T07:23:10Z</time>
      </trkpt>
      <trkpt lat="43.36614" lon="-0.19777">
        <ele>279.4</ele>
        <time>2012-08-23T07:23:34Z</time>
      </trkpt>
      <trkpt lat="43.36607" lon="-0.19766">
        <ele>279.4</ele>
        <time>2012-08-23T07:23:44Z</time>
      </trkpt>
      <trkpt lat="43.366" lon="-0.19757">
        <ele>280.36</ele>
        <time>2012-08-23T07:23:54Z</time>
      </trkpt>
      <trkpt lat="43.36593" lon="-0.19748">
        <ele>279.88</ele>
        <time>2012-08-23T07:24:03Z</time>
      </trkpt>
      <trkpt lat="43.36585" lon="-0.19739">
        <ele>279.88</ele>
        <time>2012-08-23T07:24:12Z</time>
      </trkpt>
      <trkpt lat="43.36578" lon="-0.1973">
        <ele>280.36</ele>
        <time>2012-08-23T07:24:21Z</time>
      </trkpt>
      <trkpt lat="43.36571" lon="-0.19721">
        <ele>279.88</ele>
        <time>2012-08-23T07:24:29Z</time>
      </trkpt>
      <trkpt lat="43.36563" lon="-0.19711">
        <ele>279.88</ele>
        <time>2012-08-23T07:24:38Z</time>
      </trkpt>
      <trkpt lat="43.36557" lon="-0.19702">
        <ele>279.88</ele>
        <time>2012-08-23T07:24:47Z</time>
      </trkpt>
      <trkpt lat="43.3655" lon="-0.19689">
        <ele>279.88</ele>
        <time>2012-08-23T07:24:56Z</time>
      </trkpt>
      <trkpt lat="43.36542" lon="-0.1968">
        <ele>280.36</ele>
        <time>2012-08-23T07:25:05Z</time>
      </trkpt>
      <trkpt lat="43.36534" lon="-0.19673">
        <ele>279.88</ele>
        <time>2012-08-23T07:25:13Z</time>
      </trkpt>
      <trkpt lat="43.36525" lon="-0.19668">
        <ele>279.4</ele>
        <time>2012-08-23T07:25:21Z</time>
      </trkpt>
      <trkpt lat="43.36516" lon="-0.19665">
        <ele>279.88</ele>
        <time>2012-08-23T07:25:29Z</time>
      </trkpt>
      <trkpt lat="43.36507" lon="-0.19663">
        <ele>279.88</ele>
        <time>2012-08-23T07:25:37Z</time>
      </trkpt>
      <trkpt lat="43.36498" lon="-0.19658">
        <ele>279.88</ele>
        <time>2012-08-23T07:25:46Z</time>
      </trkpt>
      <trkpt lat="43.36493" lon="-0.19648">
        <ele>280.36</ele>
        <time>2012-08-23T07:25:58Z</time>
      </trkpt>
      <trkpt lat="43.36498" lon="-0.19638">
        <ele>281.32</ele>
        <time>2012-08-23T07:26:13Z</time>
      </trkpt>
      <trkpt lat="43.36504" lon="-0.19626">
        <ele>281.8</ele>
        <time>2012-08-23T07:26:22Z</time>
      </trkpt>
      <trkpt lat="43.36509" lon="-0.19616">
        <ele>282.28</ele>
        <time>2012-08-23T07:26:33Z</time>
      </trkpt>
      <trkpt lat="43.36515" lon="-0.19606">
        <ele>283.25</ele>
        <time>2012-08-23T07:26:44Z</time>
      </trkpt>
      <trkpt lat="43.36521" lon="-0.19595">
        <ele>284.69</ele>
        <time>2012-08-23T07:26:56Z</time>
      </trkpt>
      <trkpt lat="43.36528" lon="-0.19585">
        <ele>286.61</ele>
        <time>2012-08-23T07:27:09Z</time>
      </trkpt>
      <trkpt lat="43.36533" lon="-0.19574">
        <ele>288.53</ele>
        <time>2012-08-23T07:27:22Z</time>
      </trkpt>
      <trkpt lat="43.36538" lon="-0.19564">
        <ele>292.86</ele>
        <time>2012-08-23T07:27:53Z</time>
      </trkpt>
      <trkpt lat="43.36542" lon="-0.19553">
        <ele>296.22</ele>
        <time>2012-08-23T07:28:15Z</time>
      </trkpt>
      <trkpt lat="43.36547" lon="-0.19543">
        <ele>298.63</ele>
        <time>2012-08-23T07:28:35Z</time>
      </trkpt>
      <trkpt lat="43.36552" lon="-0.19531">
        <ele>300.07</ele>
        <time>2012-08-23T07:28:50Z</time>
      </trkpt>
      <trkpt lat="43.36556" lon="-0.19518">
        <ele>301.99</ele>
        <time>2012-08-23T07:29:04Z</time>
      </trkpt>
      <trkpt lat="43.3656" lon="-0.19505">
        <ele>303.43</ele>
        <time>2012-08-23T07:29:19Z</time>
      </trkpt>
      <trkpt lat="43.3656" lon="-0.19489">
        <ele>305.36</ele>
        <time>2012-08-23T07:29:37Z</time>
      </trkpt>
      <trkpt lat="43.36562" lon="-0.19475">
        <ele>307.76</ele>
        <time>2012-08-23T07:29:51Z</time>
      </trkpt>
      <trkpt lat="43.3656" lon="-0.19462">
        <ele>308.24</ele>
        <time>2012-08-23T07:30:01Z</time>
      </trkpt>
      <trkpt lat="43.36561" lon="-0.19449">
        <ele>309.68</ele>
        <time>2012-08-23T07:30:11Z</time>
      </trkpt>
      <trkpt lat="43.36565" lon="-0.19435">
        <ele>310.64</ele>
        <time>2012-08-23T07:30:21Z</time>
      </trkpt>
      <trkpt lat="43.36568" lon="-0.19424">
        <ele>311.6</ele>
        <time>2012-08-23T07:30:32Z</time>
      </trkpt>
      <trkpt lat="43.3657" lon="-0.19412">
        <ele>312.57</ele>
        <time>2012-08-23T07:30:49Z</time>
      </trkpt>
      <trkpt lat="43.36566" lon="-0.19399">
        <ele>313.05</ele>
        <time>2012-08-23T07:31:01Z</time>
      </trkpt>
      <trkpt lat="43.3656" lon="-0.19388">
        <ele>314.01</ele>
        <time>2012-08-23T07:31:11Z</time>
      </trkpt>
      <trkpt lat="43.36554" lon="-0.19378">
        <ele>314.01</ele>
        <time>2012-08-23T07:31:20Z</time>
      </trkpt>
      <trkpt lat="43.36548" lon="-0.19367">
        <ele>314.49</ele>
        <time>2012-08-23T07:31:30Z</time>
      </trkpt>
      <trkpt lat="43.36542" lon="-0.19357">
        <ele>315.93</ele>
        <time>2012-08-23T07:31:39Z</time>
      </trkpt>
      <trkpt lat="43.36536" lon="-0.19345">
        <ele>316.41</ele>
        <time>2012-08-23T07:31:49Z</time>
      </trkpt>
      <trkpt lat="43.3653" lon="-0.19333">
        <ele>317.37</ele>
        <time>2012-08-23T07:32:00Z</time>
      </trkpt>
      <trkpt lat="43.36522" lon="-0.19326">
        <ele>317.37</ele>
        <time>2012-08-23T07:32:17Z</time>
      </trkpt>
      <trkpt lat="43.36514" lon="-0.19318">
        <ele>317.37</ele>
        <time>2012-08-23T07:32:29Z</time>
      </trkpt>
      <trkpt lat="43.36507" lon="-0.19311">
        <ele>316.89</ele>
        <time>2012-08-23T07:32:40Z</time>
      </trkpt>
      <trkpt lat="43.36499" lon="-0.19303">
        <ele>316.89</ele>
        <time>2012-08-23T07:32:53Z</time>
      </trkpt>
      <trkpt lat="43.36491" lon="-0.19294">
        <ele>316.41</ele>
        <time>2012-08-23T07:33:04Z</time>
      </trkpt>
      <trkpt lat="43.36483" lon="-0.19283">
        <ele>316.41</ele>
        <time>2012-08-23T07:33:21Z</time>
      </trkpt>
      <trkpt lat="43.36473" lon="-0.1927">
        <ele>316.89</ele>
        <time>2012-08-23T07:33:35Z</time>
      </trkpt>
      <trkpt lat="43.36462" lon="-0.19261">
        <ele>316.89</ele>
        <time>2012-08-23T07:33:49Z</time>
      </trkpt>
      <trkpt lat="43.36454" lon="-0.19252">
        <ele>315.45</ele>
        <time>2012-08-23T07:34:04Z</time>
      </trkpt>
      <trkpt lat="43.36443" lon="-0.19243">
        <ele>314.97</ele>
        <time>2012-08-23T07:34:16Z</time>
      </trkpt>
      <trkpt lat="43.36434" lon="-0.19234">
        <ele>315.93</ele>
        <time>2012-08-23T07:34:29Z</time>
      </trkpt>
      <trkpt lat="43.36423" lon="-0.19225">
        <ele>315.93</ele>
        <time>2012-08-23T07:34:42Z</time>
      </trkpt>
      <trkpt lat="43.36414" lon="-0.19217">
        <ele>315.93</ele>
        <time>2012-08-23T07:34:55Z</time>
      </trkpt>
      <trkpt lat="43.36405" lon="-0.19211">
        <ele>316.41</ele>
        <time>2012-08-23T07:35:19Z</time>
      </trkpt>
      <trkpt lat="43.36394" lon="-0.19205">
        <ele>316.89</ele>
        <time>2012-08-23T07:35:28Z</time>
      </trkpt>
      <trkpt lat="43.36383" lon="-0.19198">
        <ele>316.89</ele>
        <time>2012-08-23T07:35:38Z</time>
      </trkpt>
      <trkpt lat="43.36372" lon="-0.19195">
        <ele>317.37</ele>
        <time>2012-08-23T07:35:47Z</time>
      </trkpt>
      <trkpt lat="43.36364" lon="-0.19191">
        <ele>316.89</ele>
        <time>2012-08-23T07:35:57Z</time>
      </trkpt>
      <trkpt lat="43.36355" lon="-0.19184">
        <ele>316.41</ele>
        <time>2012-08-23T07:36:32Z</time>
      </trkpt>
      <trkpt lat="43.36343" lon="-0.19187">
        <ele>316.41</ele>
        <time>2012-08-23T07:36:44Z</time>
      </trkpt>
      <trkpt lat="43.36332" lon="-0.19194">
        <ele>316.41</ele>
        <time>2012-08-23T07:36:54Z</time>
      </trkpt>
      <trkpt lat="43.36321" lon="-0.19199">
        <ele>315.93</ele>
        <time>2012-08-23T07:37:05Z</time>
      </trkpt>
      <trkpt lat="43.3631" lon="-0.19206">
        <ele>315.93</ele>
        <time>2012-08-23T07:37:16Z</time>
      </trkpt>
      <trkpt lat="43.363" lon="-0.19212">
        <ele>314.49</ele>
        <time>2012-08-23T07:37:25Z</time>
      </trkpt>
      <trkpt lat="43.3629" lon="-0.19214">
        <ele>314.49</ele>
        <time>2012-08-23T07:37:34Z</time>
      </trkpt>
      <trkpt lat="43.3628" lon="-0.19217">
        <ele>313.53</ele>
        <time>2012-08-23T07:37:43Z</time>
      </trkpt>
      <trkpt lat="43.3627" lon="-0.19217">
        <ele>313.53</ele>
        <time>2012-08-23T07:37:52Z</time>
      </trkpt>
      <trkpt lat="43.36261" lon="-0.19219">
        <ele>313.53</ele>
        <time>2012-08-23T07:38:00Z</time>
      </trkpt>
      <trkpt lat="43.36251" lon="-0.19221">
        <ele>313.05</ele>
        <time>2012-08-23T07:38:12Z</time>
      </trkpt>
      <trkpt lat="43.36242" lon="-0.19217">
        <ele>312.09</ele>
        <time>2012-08-23T07:38:20Z</time>
      </trkpt>
      <trkpt lat="43.36233" lon="-0.19216">
        <ele>311.6</ele>
        <time>2012-08-23T07:38:27Z</time>
      </trkpt>
      <trkpt lat="43.36224" lon="-0.19213">
        <ele>311.12</ele>
        <time>2012-08-23T07:38:35Z</time>
      </trkpt>
      <trkpt lat="43.36216" lon="-0.19207">
        <ele>310.64</ele>
        <time>2012-08-23T07:38:45Z</time>
      </trkpt>
      <trkpt lat="43.36214" lon="-0.19198">
        <ele>312.09</ele>
        <time>2012-08-23T07:38:56Z</time>
      </trkpt>
      <trkpt lat="43.36204" lon="-0.19187">
        <ele>312.57</ele>
        <time>2012-08-23T07:39:08Z</time>
      </trkpt>
      <trkpt lat="43.36202" lon="-0.19173">
        <ele>314.01</ele>
        <time>2012-08-23T07:39:20Z</time>
      </trkpt>
      <trkpt lat="43.36203" lon="-0.19162">
        <ele>314.97</ele>
        <time>2012-08-23T07:39:45Z</time>
      </trkpt>
      <trkpt lat="43.3621" lon="-0.19151">
        <ele>316.89</ele>
        <time>2012-08-23T07:39:56Z</time>
      </trkpt>
      <trkpt lat="43.36217" lon="-0.19144">
        <ele>318.81</ele>
        <time>2012-08-23T07:40:09Z</time>
      </trkpt>
      <trkpt lat="43.36222" lon="-0.1913">
        <ele>320.74</ele>
        <time>2012-08-23T07:40:22Z</time>
      </trkpt>
      <trkpt lat="43.36228" lon="-0.1912">
        <ele>322.66</ele>
        <time>2012-08-23T07:40:35Z</time>
      </trkpt>
      <trkpt lat="43.36236" lon="-0.19109">
        <ele>324.58</ele>
        <time>2012-08-23T07:40:49Z</time>
      </trkpt>
      <trkpt lat="43.3624" lon="-0.19096">
        <ele>326.02</ele>
        <time>2012-08-23T07:41:04Z</time>
      </trkpt>
      <trkpt lat="43.36247" lon="-0.19084">
        <ele>327.47</ele>
        <time>2012-08-23T07:41:19Z</time>
      </trkpt>
      <trkpt lat="43.36255" lon="-0.19071">
        <ele>328.91</ele>
        <time>2012-08-23T07:41:32Z</time>
      </trkpt>
      <trkpt lat="43.3626" lon="-0.1906">
        <ele>329.39</ele>
        <time>2012-08-23T07:41:45Z</time>
      </trkpt>
      <trkpt lat="43.36266" lon="-0.19057">
        <ele>329.39</ele>
        <time>2012-08-23T07:42:06Z</time>
      </trkpt>
      <trkpt lat="43.36267" lon="-0.19062">
        <ele>330.35</ele>
        <time>2012-08-23T07:45:03Z</time>
      </trkpt>
      <trkpt lat="43.36258" lon="-0.19066">
        <ele>329.87</ele>
        <time>2012-08-23T07:45:15Z</time>
      </trkpt>
      <trkpt lat="43.36247" lon="-0.19074">
        <ele>328.91</ele>
        <time>2012-08-23T07:45:33Z</time>
      </trkpt>
      <trkpt lat="43.36238" lon="-0.19085">
        <ele>327.95</ele>
        <time>2012-08-23T07:45:45Z</time>
      </trkpt>
      <trkpt lat="43.36231" lon="-0.19099">
        <ele>326.5</ele>
        <time>2012-08-23T07:46:02Z</time>
      </trkpt>
      <trkpt lat="43.36223" lon="-0.19111">
        <ele>324.1</ele>
        <time>2012-08-23T07:46:18Z</time>
      </trkpt>
      <trkpt lat="43.36216" lon="-0.19125">
        <ele>322.66</ele>
        <time>2012-08-23T07:46:31Z</time>
      </trkpt>
      <trkpt lat="43.36211" lon="-0.19139">
        <ele>320.26</ele>
        <time>2012-08-23T07:46:43Z</time>
      </trkpt>
      <trkpt lat="43.36205" lon="-0.1915">
        <ele>318.33</ele>
        <time>2012-08-23T07:46:55Z</time>
      </trkpt>
      <trkpt lat="43.362" lon="-0.19161">
        <ele>316.41</ele>
        <time>2012-08-23T07:47:06Z</time>
      </trkpt>
      <trkpt lat="43.36196" lon="-0.19176">
        <ele>314.97</ele>
        <time>2012-08-23T07:47:17Z</time>
      </trkpt>
      <trkpt lat="43.36201" lon="-0.1919">
        <ele>313.53</ele>
        <time>2012-08-23T07:47:27Z</time>
      </trkpt>
      <trkpt lat="43.3621" lon="-0.19199">
        <ele>313.05</ele>
        <time>2012-08-23T07:47:39Z</time>
      </trkpt>
      <trkpt lat="43.36217" lon="-0.19211">
        <ele>311.6</ele>
        <time>2012-08-23T07:47:50Z</time>
      </trkpt>
      <trkpt lat="43.36208" lon="-0.19216">
        <ele>311.12</ele>
        <time>2012-08-23T07:48:00Z</time>
      </trkpt>
      <trkpt lat="43.36196" lon="-0.19217">
        <ele>310.16</ele>
        <time>2012-08-23T07:48:13Z</time>
      </trkpt>
      <trkpt lat="43.36186" lon="-0.19214">
        <ele>310.16</ele>
        <time>2012-08-23T07:48:22Z</time>
      </trkpt>
      <trkpt lat="43.36176" lon="-0.19212">
        <ele>310.16</ele>
        <time>2012-08-23T07:48:34Z</time>
      </trkpt>
      <trkpt lat="43.36165" lon="-0.1922">
        <ele>309.68</ele>
        <time>2012-08-23T07:48:45Z</time>
      </trkpt>
      <trkpt lat="43.36163" lon="-0.19232">
        <ele>309.2</ele>
        <time>2012-08-23T07:49:45Z</time>
      </trkpt>
      <trkpt lat="43.36155" lon="-0.19239">
        <ele>308.72</ele>
        <time>2012-08-23T07:49:57Z</time>
      </trkpt>
      <trkpt lat="43.36155" lon="-0.19256">
        <ele>307.76</ele>
        <time>2012-08-23T07:50:16Z</time>
      </trkpt>
      <trkpt lat="43.36147" lon="-0.19264">
        <ele>306.32</ele>
        <time>2012-08-23T07:50:38Z</time>
      </trkpt>
      <trkpt lat="43.36133" lon="-0.19271">
        <ele>305.36</ele>
        <time>2012-08-23T07:50:51Z</time>
      </trkpt>
      <trkpt lat="43.36124" lon="-0.19275">
        <ele>303.91</ele>
        <time>2012-08-23T07:51:15Z</time>
      </trkpt>
      <trkpt lat="43.36113" lon="-0.19269">
        <ele>302.47</ele>
        <time>2012-08-23T07:51:29Z</time>
      </trkpt>
      <trkpt lat="43.36104" lon="-0.19262">
        <ele>301.03</ele>
        <time>2012-08-23T07:51:40Z</time>
      </trkpt>
      <trkpt lat="43.36094" lon="-0.19261">
        <ele>299.11</ele>
        <time>2012-08-23T07:51:56Z</time>
      </trkpt>
      <trkpt lat="43.36083" lon="-0.19259">
        <ele>296.7</ele>
        <time>2012-08-23T07:52:09Z</time>
      </trkpt>
      <trkpt lat="43.36076" lon="-0.19274">
        <ele>294.78</ele>
        <time>2012-08-23T07:52:21Z</time>
      </trkpt>
      <trkpt lat="43.3607" lon="-0.19272">
        <ele>294.78</ele>
        <time>2012-08-23T07:53:02Z</time>
      </trkpt>
      <trkpt lat="43.36067" lon="-0.19285">
        <ele>292.86</ele>
        <time>2012-08-23T07:55:30Z</time>
      </trkpt>
      <trkpt lat="43.3606" lon="-0.19301">
        <ele>291.42</ele>
        <time>2012-08-23T07:55:43Z</time>
      </trkpt>
      <trkpt lat="43.36058" lon="-0.19318">
        <ele>289.49</ele>
        <time>2012-08-23T07:55:57Z</time>
      </trkpt>
      <trkpt lat="43.36058" lon="-0.1933">
        <ele>288.53</ele>
        <time>2012-08-23T07:56:13Z</time>
      </trkpt>
      <trkpt lat="43.36068" lon="-0.19339">
        <ele>288.05</ele>
        <time>2012-08-23T07:56:32Z</time>
      </trkpt>
      <trkpt lat="43.36078" lon="-0.19345">
        <ele>287.09</ele>
        <time>2012-08-23T07:56:57Z</time>
      </trkpt>
      <trkpt lat="43.36081" lon="-0.19357">
        <ele>287.57</ele>
        <time>2012-08-23T07:57:32Z</time>
      </trkpt>
      <trkpt lat="43.36078" lon="-0.19369">
        <ele>287.09</ele>
        <time>2012-08-23T07:57:42Z</time>
      </trkpt>
      <trkpt lat="43.36076" lon="-0.19382">
        <ele>286.61</ele>
        <time>2012-08-23T07:57:52Z</time>
      </trkpt>
      <trkpt lat="43.36072" lon="-0.19397">
        <ele>286.13</ele>
        <time>2012-08-23T07:58:03Z</time>
      </trkpt>
      <trkpt lat="43.36072" lon="-0.1941">
        <ele>286.13</ele>
        <time>2012-08-23T07:58:12Z</time>
      </trkpt>
      <trkpt lat="43.36067" lon="-0.1942">
        <ele>285.65</ele>
        <time>2012-08-23T07:58:23Z</time>
      </trkpt>
      <trkpt lat="43.36064" lon="-0.19432">
        <ele>285.65</ele>
        <time>2012-08-23T07:58:32Z</time>
      </trkpt>
      <trkpt lat="43.3606" lon="-0.19441">
        <ele>285.65</ele>
        <time>2012-08-23T07:58:43Z</time>
      </trkpt>
      <trkpt lat="43.36053" lon="-0.19446">
        <ele>285.65</ele>
        <time>2012-08-23T07:58:53Z</time>
      </trkpt>
      <trkpt lat="43.36047" lon="-0.19457">
        <ele>285.17</ele>
        <time>2012-08-23T07:59:03Z</time>
      </trkpt>
      <trkpt lat="43.3604" lon="-0.19464">
        <ele>283.73</ele>
        <time>2012-08-23T07:59:13Z</time>
      </trkpt>
      <trkpt lat="43.36032" lon="-0.1946">
        <ele>283.25</ele>
        <time>2012-08-23T07:59:23Z</time>
      </trkpt>
      <trkpt lat="43.36025" lon="-0.19452">
        <ele>282.77</ele>
        <time>2012-08-23T07:59:33Z</time>
      </trkpt>
      <trkpt lat="43.36018" lon="-0.19447">
        <ele>283.25</ele>
        <time>2012-08-23T07:59:42Z</time>
      </trkpt>
      <trkpt lat="43.36006" lon="-0.1944">
        <ele>283.73</ele>
        <time>2012-08-23T07:59:53Z</time>
      </trkpt>
      <trkpt lat="43.35995" lon="-0.19434">
        <ele>283.73</ele>
        <time>2012-08-23T08:00:03Z</time>
      </trkpt>
      <trkpt lat="43.35985" lon="-0.19428">
        <ele>284.21</ele>
        <time>2012-08-23T08:00:13Z</time>
      </trkpt>
      <trkpt lat="43.35978" lon="-0.19412">
        <ele>284.69</ele>
        <time>2012-08-23T08:00:25Z</time>
      </trkpt>
      <trkpt lat="43.35972" lon="-0.194">
        <ele>284.69</ele>
        <time>2012-08-23T08:00:36Z</time>
      </trkpt>
      <trkpt lat="43.35962" lon="-0.19389">
        <ele>284.69</ele>
        <time>2012-08-23T08:00:46Z</time>
      </trkpt>
      <trkpt lat="43.3595" lon="-0.19392">
        <ele>284.69</ele>
        <time>2012-08-23T08:00:57Z</time>
      </trkpt>
      <trkpt lat="43.35944" lon="-0.19387">
        <ele>285.17</ele>
        <time>2012-08-23T08:02:05Z</time>
      </trkpt>
      <trkpt lat="43.35937" lon="-0.19378">
        <ele>284.69</ele>
        <time>2012-08-23T08:02:19Z</time>
      </trkpt>
      <trkpt lat="43.35926" lon="-0.19376">
        <ele>285.17</ele>
        <time>2012-08-23T08:02:28Z</time>
      </trkpt>
      <trkpt lat="43.35916" lon="-0.19376">
        <ele>285.17</ele>
        <time>2012-08-23T08:02:37Z</time>
      </trkpt>
      <trkpt lat="43.35908" lon="-0.19375">
        <ele>284.69</ele>
        <time>2012-08-23T08:04:19Z</time>
      </trkpt>
      <trkpt lat="43.359" lon="-0.19374">
        <ele>285.17</ele>
        <time>2012-08-23T08:04:51Z</time>
      </trkpt>
      <trkpt lat="43.35891" lon="-0.19369">
        <ele>285.17</ele>
        <time>2012-08-23T08:05:01Z</time>
      </trkpt>
      <trkpt lat="43.35881" lon="-0.1936">
        <ele>285.17</ele>
        <time>2012-08-23T08:05:11Z</time>
      </trkpt>
      <trkpt lat="43.35871" lon="-0.19348">
        <ele>285.17</ele>
        <time>2012-08-23T08:05:21Z</time>
      </trkpt>
      <trkpt lat="43.3586" lon="-0.19343">
        <ele>285.17</ele>
        <time>2012-08-23T08:05:32Z</time>
      </trkpt>
      <trkpt lat="43.35848" lon="-0.1934">
        <ele>285.17</ele>
        <time>2012-08-23T08:05:43Z</time>
      </trkpt>
      <trkpt lat="43.35837" lon="-0.19337">
        <ele>285.17</ele>
        <time>2012-08-23T08:05:53Z</time>
      </trkpt>
      <trkpt lat="43.35826" lon="-0.19331">
        <ele>285.17</ele>
        <time>2012-08-23T08:06:03Z</time>
      </trkpt>
      <trkpt lat="43.35816" lon="-0.19328">
        <ele>285.17</ele>
        <time>2012-08-23T08:06:13Z</time>
      </trkpt>
      <trkpt lat="43.35805" lon="-0.19327">
        <ele>285.65</ele>
        <time>2012-08-23T08:06:29Z</time>
      </trkpt>
      <trkpt lat="43.35795" lon="-0.19317">
        <ele>285.65</ele>
        <time>2012-08-23T08:06:52Z</time>
      </trkpt>
      <trkpt lat="43.35788" lon="-0.19308">
        <ele>285.17</ele>
        <time>2012-08-23T08:07:02Z</time>
      </trkpt>
      <trkpt lat="43.35777" lon="-0.19295">
        <ele>285.17</ele>
        <time>2012-08-23T08:07:12Z</time>
      </trkpt>
      <trkpt lat="43.3577" lon="-0.19284">
        <ele>285.65</ele>
        <time>2012-08-23T08:07:23Z</time>
      </trkpt>
      <trkpt lat="43.35758" lon="-0.19274">
        <ele>285.65</ele>
        <time>2012-08-23T08:07:34Z</time>
      </trkpt>
      <trkpt lat="43.35749" lon="-0.19268">
        <ele>286.61</ele>
        <time>2012-08-23T08:07:42Z</time>
      </trkpt>
      <trkpt lat="43.35745" lon="-0.1926">
        <ele>286.13</ele>
        <time>2012-08-23T08:08:02Z</time>
      </trkpt>
      <trkpt lat="43.35745" lon="-0.19248">
        <ele>287.09</ele>
        <time>2012-08-23T08:08:13Z</time>
      </trkpt>
      <trkpt lat="43.35748" lon="-0.19237">
        <ele>287.57</ele>
        <time>2012-08-23T08:08:22Z</time>
      </trkpt>
      <trkpt lat="43.35754" lon="-0.19223">
        <ele>288.05</ele>
        <time>2012-08-23T08:08:33Z</time>
      </trkpt>
      <trkpt lat="43.35765" lon="-0.19212">
        <ele>288.53</ele>
        <time>2012-08-23T08:08:45Z</time>
      </trkpt>
      <trkpt lat="43.35769" lon="-0.19197">
        <ele>289.49</ele>
        <time>2012-08-23T08:08:58Z</time>
      </trkpt>
      <trkpt lat="43.35776" lon="-0.19181">
        <ele>289.97</ele>
        <time>2012-08-23T08:09:10Z</time>
      </trkpt>
      <trkpt lat="43.35776" lon="-0.19165">
        <ele>290.46</ele>
        <time>2012-08-23T08:09:21Z</time>
      </trkpt>
      <trkpt lat="43.3578" lon="-0.1915">
        <ele>290.94</ele>
        <time>2012-08-23T08:09:32Z</time>
      </trkpt>
      <trkpt lat="43.35783" lon="-0.19136">
        <ele>291.9</ele>
        <time>2012-08-23T08:09:44Z</time>
      </trkpt>
      <trkpt lat="43.35786" lon="-0.1912">
        <ele>292.86</ele>
        <time>2012-08-23T08:09:55Z</time>
      </trkpt>
      <trkpt lat="43.35794" lon="-0.19105">
        <ele>293.34</ele>
        <time>2012-08-23T08:10:06Z</time>
      </trkpt>
      <trkpt lat="43.35801" lon="-0.19088">
        <ele>293.82</ele>
        <time>2012-08-23T08:10:18Z</time>
      </trkpt>
      <trkpt lat="43.35804" lon="-0.19076">
        <ele>295.26</ele>
        <time>2012-08-23T08:10:31Z</time>
      </trkpt>
      <trkpt lat="43.35804" lon="-0.19062">
        <ele>296.7</ele>
        <time>2012-08-23T08:11:07Z</time>
      </trkpt>
      <trkpt lat="43.35803" lon="-0.19045">
        <ele>299.11</ele>
        <time>2012-08-23T08:11:19Z</time>
      </trkpt>
      <trkpt lat="43.35804" lon="-0.19028">
        <ele>301.03</ele>
        <time>2012-08-23T08:11:33Z</time>
      </trkpt>
      <trkpt lat="43.35804" lon="-0.19016">
        <ele>303.43</ele>
        <time>2012-08-23T08:11:46Z</time>
      </trkpt>
      <trkpt lat="43.35801" lon="-0.19003">
        <ele>304.88</ele>
        <time>2012-08-23T08:11:59Z</time>
      </trkpt>
      <trkpt lat="43.35799" lon="-0.18991">
        <ele>306.32</ele>
        <time>2012-08-23T08:12:11Z</time>
      </trkpt>
      <trkpt lat="43.35796" lon="-0.18983">
        <ele>307.28</ele>
        <time>2012-08-23T08:12:28Z</time>
      </trkpt>
      <trkpt lat="43.35789" lon="-0.18971">
        <ele>308.24</ele>
        <time>2012-08-23T08:12:38Z</time>
      </trkpt>
      <trkpt lat="43.3578" lon="-0.18961">
        <ele>308.72</ele>
        <time>2012-08-23T08:12:49Z</time>
      </trkpt>
      <trkpt lat="43.3577" lon="-0.18951">
        <ele>309.68</ele>
        <time>2012-08-23T08:13:00Z</time>
      </trkpt>
      <trkpt lat="43.35761" lon="-0.18939">
        <ele>310.16</ele>
        <time>2012-08-23T08:13:11Z</time>
      </trkpt>
      <trkpt lat="43.35753" lon="-0.18928">
        <ele>311.12</ele>
        <time>2012-08-23T08:13:24Z</time>
      </trkpt>
      <trkpt lat="43.35745" lon="-0.18919">
        <ele>311.6</ele>
        <time>2012-08-23T08:13:38Z</time>
      </trkpt>
      <trkpt lat="43.35738" lon="-0.18908">
        <ele>312.57</ele>
        <time>2012-08-23T08:13:50Z</time>
      </trkpt>
      <trkpt lat="43.35728" lon="-0.18899">
        <ele>312.57</ele>
        <time>2012-08-23T08:14:00Z</time>
      </trkpt>
      <trkpt lat="43.35719" lon="-0.18897">
        <ele>313.53</ele>
        <time>2012-08-23T08:14:15Z</time>
      </trkpt>
      <trkpt lat="43.35711" lon="-0.18896">
        <ele>313.05</ele>
        <time>2012-08-23T08:15:11Z</time>
      </trkpt>
      <trkpt lat="43.35701" lon="-0.18896">
        <ele>313.53</ele>
        <time>2012-08-23T08:15:21Z</time>
      </trkpt>
      <trkpt lat="43.35694" lon="-0.18895">
        <ele>313.53</ele>
        <time>2012-08-23T08:15:42Z</time>
      </trkpt>
      <trkpt lat="43.35684" lon="-0.18895">
        <ele>313.53</ele>
        <time>2012-08-23T08:15:51Z</time>
      </trkpt>
      <trkpt lat="43.35675" lon="-0.18891">
        <ele>314.49</ele>
        <time>2012-08-23T08:15:59Z</time>
      </trkpt>
      <trkpt lat="43.35666" lon="-0.18888">
        <ele>314.49</ele>
        <time>2012-08-23T08:16:08Z</time>
      </trkpt>
      <trkpt lat="43.35657" lon="-0.18885">
        <ele>314.97</ele>
        <time>2012-08-23T08:16:16Z</time>
      </trkpt>
      <trkpt lat="43.35649" lon="-0.18881">
        <ele>314.97</ele>
        <time>2012-08-23T08:16:25Z</time>
      </trkpt>
      <trkpt lat="43.3564" lon="-0.18876">
        <ele>314.97</ele>
        <time>2012-08-23T08:16:33Z</time>
      </trkpt>
      <trkpt lat="43.35631" lon="-0.18872">
        <ele>315.45</ele>
        <time>2012-08-23T08:16:42Z</time>
      </trkpt>
      <trkpt lat="43.35624" lon="-0.18863">
        <ele>315.45</ele>
        <time>2012-08-23T08:16:57Z</time>
      </trkpt>
      <trkpt lat="43.35619" lon="-0.18847">
        <ele>316.41</ele>
        <time>2012-08-23T08:17:09Z</time>
      </trkpt>
      <trkpt lat="43.35615" lon="-0.18834">
        <ele>316.41</ele>
        <time>2012-08-23T08:17:18Z</time>
      </trkpt>
      <trkpt lat="43.35614" lon="-0.18824">
        <ele>316.89</ele>
        <time>2012-08-23T08:17:27Z</time>
      </trkpt>
      <trkpt lat="43.35618" lon="-0.18812">
        <ele>317.37</ele>
        <time>2012-08-23T08:17:37Z</time>
      </trkpt>
      <trkpt lat="43.35622" lon="-0.18801">
        <ele>317.37</ele>
        <time>2012-08-23T08:17:47Z</time>
      </trkpt>
      <trkpt lat="43.35624" lon="-0.1879">
        <ele>317.85</ele>
        <time>2012-08-23T08:17:56Z</time>
      </trkpt>
      <trkpt lat="43.35627" lon="-0.18778">
        <ele>318.33</ele>
        <time>2012-08-23T08:18:05Z</time>
      </trkpt>
      <trkpt lat="43.35629" lon="-0.18765">
        <ele>318.33</ele>
        <time>2012-08-23T08:18:14Z</time>
      </trkpt>
      <trkpt lat="43.35627" lon="-0.18753">
        <ele>319.3</ele>
        <time>2012-08-23T08:18:23Z</time>
      </trkpt>
      <trkpt lat="43.35625" lon="-0.1874">
        <ele>319.3</ele>
        <time>2012-08-23T08:18:31Z</time>
      </trkpt>
      <trkpt lat="43.35626" lon="-0.18728">
        <ele>320.26</ele>
        <time>2012-08-23T08:18:40Z</time>
      </trkpt>
      <trkpt lat="43.3563" lon="-0.18716">
        <ele>321.22</ele>
        <time>2012-08-23T08:18:49Z</time>
      </trkpt>
      <trkpt lat="43.35635" lon="-0.18706">
        <ele>321.22</ele>
        <time>2012-08-23T08:18:58Z</time>
      </trkpt>
      <trkpt lat="43.35638" lon="-0.18693">
        <ele>322.18</ele>
        <time>2012-08-23T08:19:08Z</time>
      </trkpt>
      <trkpt lat="43.35639" lon="-0.18681">
        <ele>322.18</ele>
        <time>2012-08-23T08:19:21Z</time>
      </trkpt>
      <trkpt lat="43.35632" lon="-0.18676">
        <ele>322.18</ele>
        <time>2012-08-23T08:20:02Z</time>
      </trkpt>
      <trkpt lat="43.35622" lon="-0.18673">
        <ele>322.18</ele>
        <time>2012-08-23T08:20:13Z</time>
      </trkpt>
      <trkpt lat="43.35613" lon="-0.18669">
        <ele>323.14</ele>
        <time>2012-08-23T08:20:27Z</time>
      </trkpt>
      <trkpt lat="43.35603" lon="-0.18665">
        <ele>323.62</ele>
        <time>2012-08-23T08:20:36Z</time>
      </trkpt>
      <trkpt lat="43.35594" lon="-0.18662">
        <ele>324.58</ele>
        <time>2012-08-23T08:20:46Z</time>
      </trkpt>
      <trkpt lat="43.35585" lon="-0.18661">
        <ele>325.54</ele>
        <time>2012-08-23T08:20:55Z</time>
      </trkpt>
      <trkpt lat="43.35575" lon="-0.18663">
        <ele>326.02</ele>
        <time>2012-08-23T08:21:04Z</time>
      </trkpt>
      <trkpt lat="43.35567" lon="-0.18667">
        <ele>326.99</ele>
        <time>2012-08-23T08:21:23Z</time>
      </trkpt>
      <trkpt lat="43.35558" lon="-0.18669">
        <ele>327.47</ele>
        <time>2012-08-23T08:21:31Z</time>
      </trkpt>
      <trkpt lat="43.35549" lon="-0.18672">
        <ele>327.95</ele>
        <time>2012-08-23T08:21:39Z</time>
      </trkpt>
      <trkpt lat="43.35539" lon="-0.18675">
        <ele>328.43</ele>
        <time>2012-08-23T08:21:47Z</time>
      </trkpt>
      <trkpt lat="43.3553" lon="-0.18678">
        <ele>328.43</ele>
        <time>2012-08-23T08:21:55Z</time>
      </trkpt>
      <trkpt lat="43.35521" lon="-0.1868">
        <ele>327.95</ele>
        <time>2012-08-23T08:22:03Z</time>
      </trkpt>
      <trkpt lat="43.35512" lon="-0.18683">
        <ele>327.47</ele>
        <time>2012-08-23T08:22:13Z</time>
      </trkpt>
      <trkpt lat="43.35505" lon="-0.18685">
        <ele>327.47</ele>
        <time>2012-08-23T08:23:14Z</time>
      </trkpt>
      <trkpt lat="43.35495" lon="-0.18688">
        <ele>326.02</ele>
        <time>2012-08-23T08:23:22Z</time>
      </trkpt>
      <trkpt lat="43.35486" lon="-0.1869">
        <ele>325.54</ele>
        <time>2012-08-23T08:23:30Z</time>
      </trkpt>
      <trkpt lat="43.35477" lon="-0.18691">
        <ele>325.06</ele>
        <time>2012-08-23T08:23:40Z</time>
      </trkpt>
      <trkpt lat="43.35468" lon="-0.18693">
        <ele>323.62</ele>
        <time>2012-08-23T08:24:48Z</time>
      </trkpt>
      <trkpt lat="43.35458" lon="-0.18695">
        <ele>323.14</ele>
        <time>2012-08-23T08:24:57Z</time>
      </trkpt>
      <trkpt lat="43.35448" lon="-0.18697">
        <ele>323.14</ele>
        <time>2012-08-23T08:25:05Z</time>
      </trkpt>
      <trkpt lat="43.35439" lon="-0.18701">
        <ele>323.14</ele>
        <time>2012-08-23T08:25:13Z</time>
      </trkpt>
      <trkpt lat="43.3543" lon="-0.18702">
        <ele>323.14</ele>
        <time>2012-08-23T08:25:21Z</time>
      </trkpt>
      <trkpt lat="43.35421" lon="-0.18704">
        <ele>322.18</ele>
        <time>2012-08-23T08:25:29Z</time>
      </trkpt>
      <trkpt lat="43.35412" lon="-0.18708">
        <ele>322.18</ele>
        <time>2012-08-23T08:25:37Z</time>
      </trkpt>
      <trkpt lat="43.35403" lon="-0.1871">
        <ele>321.22</ele>
        <time>2012-08-23T08:25:45Z</time>
      </trkpt>
      <trkpt lat="43.35393" lon="-0.18712">
        <ele>320.74</ele>
        <time>2012-08-23T08:25:53Z</time>
      </trkpt>
      <trkpt lat="43.35384" lon="-0.18715">
        <ele>319.78</ele>
        <time>2012-08-23T08:26:01Z</time>
      </trkpt>
      <trkpt lat="43.35375" lon="-0.18718">
        <ele>318.33</ele>
        <time>2012-08-23T08:26:09Z</time>
      </trkpt>
      <trkpt lat="43.35365" lon="-0.18722">
        <ele>317.85</ele>
        <time>2012-08-23T08:26:17Z</time>
      </trkpt>
      <trkpt lat="43.35356" lon="-0.18725">
        <ele>317.37</ele>
        <time>2012-08-23T08:26:25Z</time>
      </trkpt>
      <trkpt lat="43.35347" lon="-0.18722">
        <ele>317.37</ele>
        <time>2012-08-23T08:26:34Z</time>
      </trkpt>
      <trkpt lat="43.35346" lon="-0.1871">
        <ele>317.85</ele>
        <time>2012-08-23T08:26:41Z</time>
      </trkpt>
      <trkpt lat="43.35351" lon="-0.18699">
        <ele>317.85</ele>
        <time>2012-08-23T08:26:50Z</time>
      </trkpt>
      <trkpt lat="43.35357" lon="-0.18688">
        <ele>315.93</ele>
        <time>2012-08-23T08:27:02Z</time>
      </trkpt>
      <trkpt lat="43.35352" lon="-0.18672">
        <ele>315.45</ele>
        <time>2012-08-23T08:27:12Z</time>
      </trkpt>
      <trkpt lat="43.35347" lon="-0.18661">
        <ele>314.49</ele>
        <time>2012-08-23T08:27:20Z</time>
      </trkpt>
      <trkpt lat="43.35343" lon="-0.18648">
        <ele>315.45</ele>
        <time>2012-08-23T08:27:30Z</time>
      </trkpt>
      <trkpt lat="43.3534" lon="-0.18634">
        <ele>317.37</ele>
        <time>2012-08-23T08:27:42Z</time>
      </trkpt>
      <trkpt lat="43.35338" lon="-0.18619">
        <ele>319.3</ele>
        <time>2012-08-23T08:27:54Z</time>
      </trkpt>
      <trkpt lat="43.3533" lon="-0.18606">
        <ele>320.74</ele>
        <time>2012-08-23T08:28:06Z</time>
      </trkpt>
      <trkpt lat="43.3532" lon="-0.18606">
        <ele>320.74</ele>
        <time>2012-08-23T08:28:17Z</time>
      </trkpt>
      <trkpt lat="43.3531" lon="-0.18608">
        <ele>321.22</ele>
        <time>2012-08-23T08:28:27Z</time>
      </trkpt>
      <trkpt lat="43.35299" lon="-0.18609">
        <ele>321.22</ele>
        <time>2012-08-23T08:28:36Z</time>
      </trkpt>
      <trkpt lat="43.35289" lon="-0.18611">
        <ele>321.22</ele>
        <time>2012-08-23T08:28:45Z</time>
      </trkpt>
      <trkpt lat="43.35281" lon="-0.18612">
        <ele>321.22</ele>
        <time>2012-08-23T08:28:53Z</time>
      </trkpt>
      <trkpt lat="43.35271" lon="-0.18613">
        <ele>321.22</ele>
        <time>2012-08-23T08:29:01Z</time>
      </trkpt>
      <trkpt lat="43.35262" lon="-0.18615">
        <ele>321.22</ele>
        <time>2012-08-23T08:29:11Z</time>
      </trkpt>
      <trkpt lat="43.3525" lon="-0.18616">
        <ele>321.7</ele>
        <time>2012-08-23T08:29:21Z</time>
      </trkpt>
      <trkpt lat="43.35239" lon="-0.18617">
        <ele>322.18</ele>
        <time>2012-08-23T08:29:30Z</time>
      </trkpt>
      <trkpt lat="43.35233" lon="-0.18622">
        <ele>322.66</ele>
        <time>2012-08-23T08:30:11Z</time>
      </trkpt>
      <trkpt lat="43.35231" lon="-0.18619">
        <ele>324.1</ele>
        <time>2012-08-23T08:35:31Z</time>
      </trkpt>
      <trkpt lat="43.35222" lon="-0.18608">
        <ele>324.58</ele>
        <time>2012-08-23T08:35:44Z</time>
      </trkpt>
      <trkpt lat="43.35212" lon="-0.18599">
        <ele>324.58</ele>
        <time>2012-08-23T08:35:54Z</time>
      </trkpt>
      <trkpt lat="43.35204" lon="-0.1859">
        <ele>324.58</ele>
        <time>2012-08-23T08:36:02Z</time>
      </trkpt>
      <trkpt lat="43.35198" lon="-0.18584">
        <ele>324.58</ele>
        <time>2012-08-23T08:36:37Z</time>
      </trkpt>
      <trkpt lat="43.35189" lon="-0.18574">
        <ele>324.58</ele>
        <time>2012-08-23T08:36:46Z</time>
      </trkpt>
      <trkpt lat="43.35181" lon="-0.18565">
        <ele>326.02</ele>
        <time>2012-08-23T08:36:55Z</time>
      </trkpt>
      <trkpt lat="43.35172" lon="-0.18555">
        <ele>326.5</ele>
        <time>2012-08-23T08:37:05Z</time>
      </trkpt>
      <trkpt lat="43.35164" lon="-0.18547">
        <ele>326.99</ele>
        <time>2012-08-23T08:37:15Z</time>
      </trkpt>
      <trkpt lat="43.35155" lon="-0.18536">
        <ele>327.95</ele>
        <time>2012-08-23T08:37:27Z</time>
      </trkpt>
      <trkpt lat="43.35148" lon="-0.18527">
        <ele>328.43</ele>
        <time>2012-08-23T08:37:36Z</time>
      </trkpt>
      <trkpt lat="43.3514" lon="-0.18519">
        <ele>328.91</ele>
        <time>2012-08-23T08:37:45Z</time>
      </trkpt>
      <trkpt lat="43.35133" lon="-0.18511">
        <ele>328.91</ele>
        <time>2012-08-23T08:37:54Z</time>
      </trkpt>
      <trkpt lat="43.35125" lon="-0.18502">
        <ele>329.87</ele>
        <time>2012-08-23T08:38:04Z</time>
      </trkpt>
      <trkpt lat="43.35118" lon="-0.18493">
        <ele>329.87</ele>
        <time>2012-08-23T08:38:14Z</time>
      </trkpt>
      <trkpt lat="43.35109" lon="-0.18487">
        <ele>329.87</ele>
        <time>2012-08-23T08:38:23Z</time>
      </trkpt>
      <trkpt lat="43.35102" lon="-0.18479">
        <ele>329.87</ele>
        <time>2012-08-23T08:38:32Z</time>
      </trkpt>
      <trkpt lat="43.35095" lon="-0.18473">
        <ele>330.35</ele>
        <time>2012-08-23T08:38:41Z</time>
      </trkpt>
      <trkpt lat="43.35086" lon="-0.18464">
        <ele>329.87</ele>
        <time>2012-08-23T08:38:51Z</time>
      </trkpt>
      <trkpt lat="43.35078" lon="-0.18455">
        <ele>329.87</ele>
        <time>2012-08-23T08:39:00Z</time>
      </trkpt>
      <trkpt lat="43.3507" lon="-0.18446">
        <ele>329.87</ele>
        <time>2012-08-23T08:39:10Z</time>
      </trkpt>
      <trkpt lat="43.35063" lon="-0.18438">
        <ele>329.39</ele>
        <time>2012-08-23T08:39:19Z</time>
      </trkpt>
      <trkpt lat="43.35056" lon="-0.1843">
        <ele>328.91</ele>
        <time>2012-08-23T08:39:29Z</time>
      </trkpt>
      <trkpt lat="43.35047" lon="-0.18422">
        <ele>328.91</ele>
        <time>2012-08-23T08:39:40Z</time>
      </trkpt>
      <trkpt lat="43.35041" lon="-0.18413">
        <ele>328.43</ele>
        <time>2012-08-23T08:39:54Z</time>
      </trkpt>
      <trkpt lat="43.35034" lon="-0.18403">
        <ele>327.47</ele>
        <time>2012-08-23T08:40:07Z</time>
      </trkpt>
      <trkpt lat="43.35026" lon="-0.18393">
        <ele>327.47</ele>
        <time>2012-08-23T08:40:21Z</time>
      </trkpt>
      <trkpt lat="43.35015" lon="-0.18379">
        <ele>326.99</ele>
        <time>2012-08-23T08:40:33Z</time>
      </trkpt>
      <trkpt lat="43.35009" lon="-0.18372">
        <ele>326.5</ele>
        <time>2012-08-23T08:40:43Z</time>
      </trkpt>
      <trkpt lat="43.35002" lon="-0.1836">
        <ele>326.02</ele>
        <time>2012-08-23T08:40:57Z</time>
      </trkpt>
      <trkpt lat="43.34993" lon="-0.18351">
        <ele>326.5</ele>
        <time>2012-08-23T08:41:13Z</time>
      </trkpt>
      <trkpt lat="43.34979" lon="-0.18339">
        <ele>326.5</ele>
        <time>2012-08-23T08:41:25Z</time>
      </trkpt>
      <trkpt lat="43.34967" lon="-0.18332">
        <ele>326.5</ele>
        <time>2012-08-23T08:41:35Z</time>
      </trkpt>
      <trkpt lat="43.3496" lon="-0.18325">
        <ele>326.99</ele>
        <time>2012-08-23T08:41:44Z</time>
      </trkpt>
      <trkpt lat="43.34952" lon="-0.18318">
        <ele>326.5</ele>
        <time>2012-08-23T08:41:54Z</time>
      </trkpt>
      <trkpt lat="43.34945" lon="-0.1831">
        <ele>326.5</ele>
        <time>2012-08-23T08:42:03Z</time>
      </trkpt>
      <trkpt lat="43.34937" lon="-0.18302">
        <ele>326.99</ele>
        <time>2012-08-23T08:42:13Z</time>
      </trkpt>
      <trkpt lat="43.34929" lon="-0.18293">
        <ele>327.47</ele>
        <time>2012-08-23T08:42:23Z</time>
      </trkpt>
      <trkpt lat="43.34922" lon="-0.18285">
        <ele>327.47</ele>
        <time>2012-08-23T08:42:32Z</time>
      </trkpt>
      <trkpt lat="43.34913" lon="-0.18276">
        <ele>327.47</ele>
        <time>2012-08-23T08:42:42Z</time>
      </trkpt>
      <trkpt lat="43.34906" lon="-0.18268">
        <ele>327.47</ele>
        <time>2012-08-23T08:42:51Z</time>
      </trkpt>
      <trkpt lat="43.34898" lon="-0.18261">
        <ele>327.47</ele>
        <time>2012-08-23T08:43:01Z</time>
      </trkpt>
      <trkpt lat="43.34891" lon="-0.18253">
        <ele>327.47</ele>
        <time>2012-08-23T08:43:09Z</time>
      </trkpt>
      <trkpt lat="43.34884" lon="-0.18245">
        <ele>327.47</ele>
        <time>2012-08-23T08:43:18Z</time>
      </trkpt>
      <trkpt lat="43.34876" lon="-0.18237">
        <ele>327.95</ele>
        <time>2012-08-23T08:43:27Z</time>
      </trkpt>
      <trkpt lat="43.34868" lon="-0.18229">
        <ele>328.43</ele>
        <time>2012-08-23T08:43:36Z</time>
      </trkpt>
      <trkpt lat="43.34858" lon="-0.18222">
        <ele>328.43</ele>
        <time>2012-08-23T08:43:46Z</time>
      </trkpt>
      <trkpt lat="43.34849" lon="-0.18213">
        <ele>328.91</ele>
        <time>2012-08-23T08:43:56Z</time>
      </trkpt>
      <trkpt lat="43.34842" lon="-0.18204">
        <ele>328.91</ele>
        <time>2012-08-23T08:44:05Z</time>
      </trkpt>
      <trkpt lat="43.34837" lon="-0.18196">
        <ele>328.91</ele>
        <time>2012-08-23T08:44:14Z</time>
      </trkpt>
      <trkpt lat="43.34829" lon="-0.18187">
        <ele>329.39</ele>
        <time>2012-08-23T08:44:24Z</time>
      </trkpt>
      <trkpt lat="43.34824" lon="-0.18177">
        <ele>329.87</ele>
        <time>2012-08-23T08:44:33Z</time>
      </trkpt>
      <trkpt lat="43.34817" lon="-0.18167">
        <ele>330.83</ele>
        <time>2012-08-23T08:44:43Z</time>
      </trkpt>
      <trkpt lat="43.34811" lon="-0.18156">
        <ele>331.79</ele>
        <time>2012-08-23T08:44:55Z</time>
      </trkpt>
      <trkpt lat="43.34805" lon="-0.18141">
        <ele>332.75</ele>
        <time>2012-08-23T08:45:08Z</time>
      </trkpt>
      <trkpt lat="43.34797" lon="-0.1813">
        <ele>334.68</ele>
        <time>2012-08-23T08:45:20Z</time>
      </trkpt>
      <trkpt lat="43.34788" lon="-0.1812">
        <ele>334.68</ele>
        <time>2012-08-23T08:45:31Z</time>
      </trkpt>
      <trkpt lat="43.34779" lon="-0.18116">
        <ele>334.68</ele>
        <time>2012-08-23T08:45:42Z</time>
      </trkpt>
      <trkpt lat="43.34766" lon="-0.1811">
        <ele>335.16</ele>
        <time>2012-08-23T08:45:52Z</time>
      </trkpt>
      <trkpt lat="43.34757" lon="-0.18103">
        <ele>335.16</ele>
        <time>2012-08-23T08:46:03Z</time>
      </trkpt>
      <trkpt lat="43.34747" lon="-0.18097">
        <ele>335.64</ele>
        <time>2012-08-23T08:46:15Z</time>
      </trkpt>
      <trkpt lat="43.34737" lon="-0.18089">
        <ele>335.64</ele>
        <time>2012-08-23T08:46:26Z</time>
      </trkpt>
      <trkpt lat="43.34728" lon="-0.18083">
        <ele>336.12</ele>
        <time>2012-08-23T08:46:37Z</time>
      </trkpt>
      <trkpt lat="43.34719" lon="-0.18075">
        <ele>336.12</ele>
        <time>2012-08-23T08:46:49Z</time>
      </trkpt>
      <trkpt lat="43.34714" lon="-0.18089">
        <ele>334.68</ele>
        <time>2012-08-23T08:47:02Z</time>
      </trkpt>
      <trkpt lat="43.34712" lon="-0.18104">
        <ele>333.23</ele>
        <time>2012-08-23T08:47:13Z</time>
      </trkpt>
      <trkpt lat="43.3471" lon="-0.18117">
        <ele>332.27</ele>
        <time>2012-08-23T08:47:22Z</time>
      </trkpt>
      <trkpt lat="43.34706" lon="-0.1813">
        <ele>331.79</ele>
        <time>2012-08-23T08:47:31Z</time>
      </trkpt>
      <trkpt lat="43.34703" lon="-0.18142">
        <ele>331.31</ele>
        <time>2012-08-23T08:47:40Z</time>
      </trkpt>
      <trkpt lat="43.34702" lon="-0.18156">
        <ele>330.83</ele>
        <time>2012-08-23T08:47:50Z</time>
      </trkpt>
      <trkpt lat="43.34704" lon="-0.18169">
        <ele>329.87</ele>
        <time>2012-08-23T08:47:59Z</time>
      </trkpt>
      <trkpt lat="43.34709" lon="-0.18182">
        <ele>329.39</ele>
        <time>2012-08-23T08:48:09Z</time>
      </trkpt>
      <trkpt lat="43.34701" lon="-0.18188">
        <ele>328.43</ele>
        <time>2012-08-23T08:48:26Z</time>
      </trkpt>
      <trkpt lat="43.34693" lon="-0.18197">
        <ele>327.95</ele>
        <time>2012-08-23T08:48:36Z</time>
      </trkpt>
      <trkpt lat="43.34687" lon="-0.18209">
        <ele>327.47</ele>
        <time>2012-08-23T08:48:46Z</time>
      </trkpt>
      <trkpt lat="43.34681" lon="-0.18217">
        <ele>326.99</ele>
        <time>2012-08-23T08:48:57Z</time>
      </trkpt>
      <trkpt lat="43.34672" lon="-0.18227">
        <ele>327.47</ele>
        <time>2012-08-23T08:49:08Z</time>
      </trkpt>
      <trkpt lat="43.34663" lon="-0.18236">
        <ele>326.99</ele>
        <time>2012-08-23T08:49:21Z</time>
      </trkpt>
      <trkpt lat="43.34654" lon="-0.18245">
        <ele>326.02</ele>
        <time>2012-08-23T08:49:30Z</time>
      </trkpt>
      <trkpt lat="43.34644" lon="-0.18256">
        <ele>325.54</ele>
        <time>2012-08-23T08:49:39Z</time>
      </trkpt>
      <trkpt lat="43.34637" lon="-0.18267">
        <ele>325.06</ele>
        <time>2012-08-23T08:49:48Z</time>
      </trkpt>
      <trkpt lat="43.34627" lon="-0.18272">
        <ele>324.1</ele>
        <time>2012-08-23T08:50:00Z</time>
      </trkpt>
      <trkpt lat="43.3462" lon="-0.18262">
        <ele>324.1</ele>
        <time>2012-08-23T08:50:10Z</time>
      </trkpt>
      <trkpt lat="43.3461" lon="-0.18252">
        <ele>324.1</ele>
        <time>2012-08-23T08:50:19Z</time>
      </trkpt>
      <trkpt lat="43.34602" lon="-0.18245">
        <ele>324.1</ele>
        <time>2012-08-23T08:50:27Z</time>
      </trkpt>
      <trkpt lat="43.34593" lon="-0.18237">
        <ele>323.14</ele>
        <time>2012-08-23T08:50:36Z</time>
      </trkpt>
      <trkpt lat="43.34584" lon="-0.18229">
        <ele>323.14</ele>
        <time>2012-08-23T08:50:44Z</time>
      </trkpt>
      <trkpt lat="43.34575" lon="-0.18224">
        <ele>322.66</ele>
        <time>2012-08-23T08:50:54Z</time>
      </trkpt>
      <trkpt lat="43.34564" lon="-0.18218">
        <ele>321.7</ele>
        <time>2012-08-23T08:51:03Z</time>
      </trkpt>
      <trkpt lat="43.34555" lon="-0.18216">
        <ele>321.7</ele>
        <time>2012-08-23T08:51:12Z</time>
      </trkpt>
      <trkpt lat="43.34546" lon="-0.1821">
        <ele>321.22</ele>
        <time>2012-08-23T08:53:11Z</time>
      </trkpt>
      <trkpt lat="43.34536" lon="-0.18209">
        <ele>320.26</ele>
        <time>2012-08-23T08:53:23Z</time>
      </trkpt>
      <trkpt lat="43.34532" lon="-0.18198">
        <ele>319.78</ele>
        <time>2012-08-23T08:53:33Z</time>
      </trkpt>
      <trkpt lat="43.34526" lon="-0.18187">
        <ele>319.78</ele>
        <time>2012-08-23T08:53:42Z</time>
      </trkpt>
      <trkpt lat="43.34527" lon="-0.18175">
        <ele>319.3</ele>
        <time>2012-08-23T08:54:12Z</time>
      </trkpt>
      <trkpt lat="43.34526" lon="-0.18162">
        <ele>319.3</ele>
        <time>2012-08-23T08:54:23Z</time>
      </trkpt>
      <trkpt lat="43.34525" lon="-0.1815">
        <ele>319.3</ele>
        <time>2012-08-23T08:54:32Z</time>
      </trkpt>
      <trkpt lat="43.34523" lon="-0.18137">
        <ele>319.3</ele>
        <time>2012-08-23T08:54:49Z</time>
      </trkpt>
      <trkpt lat="43.34519" lon="-0.18122">
        <ele>319.78</ele>
        <time>2012-08-23T08:55:00Z</time>
      </trkpt>
      <trkpt lat="43.34513" lon="-0.18109">
        <ele>320.74</ele>
        <time>2012-08-23T08:55:11Z</time>
      </trkpt>
      <trkpt lat="43.34507" lon="-0.18095">
        <ele>322.66</ele>
        <time>2012-08-23T08:55:23Z</time>
      </trkpt>
      <trkpt lat="43.34498" lon="-0.18086">
        <ele>324.58</ele>
        <time>2012-08-23T08:55:35Z</time>
      </trkpt>
      <trkpt lat="43.34488" lon="-0.18076">
        <ele>325.06</ele>
        <time>2012-08-23T08:55:51Z</time>
      </trkpt>
      <trkpt lat="43.34478" lon="-0.1807">
        <ele>325.54</ele>
        <time>2012-08-23T08:56:01Z</time>
      </trkpt>
      <trkpt lat="43.34469" lon="-0.18065">
        <ele>326.02</ele>
        <time>2012-08-23T08:56:10Z</time>
      </trkpt>
      <trkpt lat="43.34459" lon="-0.18064">
        <ele>326.99</ele>
        <time>2012-08-23T08:56:19Z</time>
      </trkpt>
      <trkpt lat="43.34448" lon="-0.18062">
        <ele>327.95</ele>
        <time>2012-08-23T08:56:29Z</time>
      </trkpt>
      <trkpt lat="43.34439" lon="-0.18058">
        <ele>328.91</ele>
        <time>2012-08-23T08:56:38Z</time>
      </trkpt>
      <trkpt lat="43.3443" lon="-0.18054">
        <ele>327.95</ele>
        <time>2012-08-23T08:56:47Z</time>
      </trkpt>
      <trkpt lat="43.3442" lon="-0.18049">
        <ele>328.91</ele>
        <time>2012-08-23T08:56:56Z</time>
      </trkpt>
      <trkpt lat="43.3441" lon="-0.18045">
        <ele>328.43</ele>
        <time>2012-08-23T08:57:05Z</time>
      </trkpt>
      <trkpt lat="43.34401" lon="-0.18041">
        <ele>328.91</ele>
        <time>2012-08-23T08:57:14Z</time>
      </trkpt>
      <trkpt lat="43.34392" lon="-0.18037">
        <ele>329.39</ele>
        <time>2012-08-23T08:57:22Z</time>
      </trkpt>
      <trkpt lat="43.34383" lon="-0.18033">
        <ele>329.39</ele>
        <time>2012-08-23T08:57:30Z</time>
      </trkpt>
      <trkpt lat="43.34375" lon="-0.18029">
        <ele>329.39</ele>
        <time>2012-08-23T08:57:38Z</time>
      </trkpt>
      <trkpt lat="43.34365" lon="-0.18024">
        <ele>329.87</ele>
        <time>2012-08-23T08:57:47Z</time>
      </trkpt>
      <trkpt lat="43.34356" lon="-0.1802">
        <ele>329.87</ele>
        <time>2012-08-23T08:57:55Z</time>
      </trkpt>
      <trkpt lat="43.34348" lon="-0.18016">
        <ele>329.39</ele>
        <time>2012-08-23T08:58:03Z</time>
      </trkpt>
      <trkpt lat="43.34339" lon="-0.1801">
        <ele>329.87</ele>
        <time>2012-08-23T08:58:11Z</time>
      </trkpt>
      <trkpt lat="43.3433" lon="-0.18006">
        <ele>328.91</ele>
        <time>2012-08-23T08:58:20Z</time>
      </trkpt>
      <trkpt lat="43.34322" lon="-0.18005">
        <ele>328.91</ele>
        <time>2012-08-23T08:58:28Z</time>
      </trkpt>
      <trkpt lat="43.34316" lon="-0.18017">
        <ele>328.43</ele>
        <time>2012-08-23T08:58:37Z</time>
      </trkpt>
      <trkpt lat="43.34311" lon="-0.18031">
        <ele>327.95</ele>
        <time>2012-08-23T08:58:47Z</time>
      </trkpt>
      <trkpt lat="43.34305" lon="-0.18043">
        <ele>327.47</ele>
        <time>2012-08-23T08:58:57Z</time>
      </trkpt>
      <trkpt lat="43.34298" lon="-0.18055">
        <ele>326.99</ele>
        <time>2012-08-23T08:59:07Z</time>
      </trkpt>
      <trkpt lat="43.3429" lon="-0.18067">
        <ele>326.02</ele>
        <time>2012-08-23T08:59:17Z</time>
      </trkpt>
      <trkpt lat="43.34285" lon="-0.18078">
        <ele>325.06</ele>
        <time>2012-08-23T08:59:25Z</time>
      </trkpt>
      <trkpt lat="43.34279" lon="-0.18091">
        <ele>324.1</ele>
        <time>2012-08-23T08:59:34Z</time>
      </trkpt>
      <trkpt lat="43.34275" lon="-0.18104">
        <ele>323.62</ele>
        <time>2012-08-23T08:59:42Z</time>
      </trkpt>
      <trkpt lat="43.34273" lon="-0.18116">
        <ele>322.66</ele>
        <time>2012-08-23T08:59:50Z</time>
      </trkpt>
      <trkpt lat="43.34275" lon="-0.18132">
        <ele>321.7</ele>
        <time>2012-08-23T08:59:59Z</time>
      </trkpt>
      <trkpt lat="43.34277" lon="-0.18146">
        <ele>321.7</ele>
        <time>2012-08-23T09:00:07Z</time>
      </trkpt>
      <trkpt lat="43.34279" lon="-0.18159">
        <ele>320.74</ele>
        <time>2012-08-23T09:00:16Z</time>
      </trkpt>
      <trkpt lat="43.34282" lon="-0.18171">
        <ele>320.74</ele>
        <time>2012-08-23T09:00:24Z</time>
      </trkpt>
      <trkpt lat="43.34285" lon="-0.18186">
        <ele>319.78</ele>
        <time>2012-08-23T09:00:33Z</time>
      </trkpt>
      <trkpt lat="43.34288" lon="-0.18198">
        <ele>319.3</ele>
        <time>2012-08-23T09:00:42Z</time>
      </trkpt>
      <trkpt lat="43.3429" lon="-0.1821">
        <ele>318.81</ele>
        <time>2012-08-23T09:00:51Z</time>
      </trkpt>
      <trkpt lat="43.34295" lon="-0.18224">
        <ele>317.85</ele>
        <time>2012-08-23T09:01:00Z</time>
      </trkpt>
      <trkpt lat="43.34298" lon="-0.18238">
        <ele>316.89</ele>
        <time>2012-08-23T09:01:09Z</time>
      </trkpt>
      <trkpt lat="43.34301" lon="-0.18252">
        <ele>316.41</ele>
        <time>2012-08-23T09:01:18Z</time>
      </trkpt>
      <trkpt lat="43.34304" lon="-0.18266">
        <ele>315.93</ele>
        <time>2012-08-23T09:01:28Z</time>
      </trkpt>
      <trkpt lat="43.34306" lon="-0.18279">
        <ele>314.97</ele>
        <time>2012-08-23T09:01:36Z</time>
      </trkpt>
      <trkpt lat="43.34308" lon="-0.18292">
        <ele>314.49</ele>
        <time>2012-08-23T09:01:44Z</time>
      </trkpt>
      <trkpt lat="43.3431" lon="-0.18305">
        <ele>314.01</ele>
        <time>2012-08-23T09:01:52Z</time>
      </trkpt>
      <trkpt lat="43.34312" lon="-0.18317">
        <ele>313.53</ele>
        <time>2012-08-23T09:02:07Z</time>
      </trkpt>
      <trkpt lat="43.34313" lon="-0.1833">
        <ele>313.05</ele>
        <time>2012-08-23T09:02:16Z</time>
      </trkpt>
      <trkpt lat="43.34315" lon="-0.18342">
        <ele>312.09</ele>
        <time>2012-08-23T09:02:24Z</time>
      </trkpt>
      <trkpt lat="43.34316" lon="-0.18356">
        <ele>311.6</ele>
        <time>2012-08-23T09:02:35Z</time>
      </trkpt>
      <trkpt lat="43.34317" lon="-0.18371">
        <ele>310.64</ele>
        <time>2012-08-23T09:02:44Z</time>
      </trkpt>
      <trkpt lat="43.34318" lon="-0.18385">
        <ele>309.68</ele>
        <time>2012-08-23T09:02:54Z</time>
      </trkpt>
      <trkpt lat="43.34315" lon="-0.18399">
        <ele>308.24</ele>
        <time>2012-08-23T09:03:04Z</time>
      </trkpt>
      <trkpt lat="43.34312" lon="-0.18412">
        <ele>307.28</ele>
        <time>2012-08-23T09:03:13Z</time>
      </trkpt>
      <trkpt lat="43.34306" lon="-0.18426">
        <ele>305.84</ele>
        <time>2012-08-23T09:03:23Z</time>
      </trkpt>
      <trkpt lat="43.34299" lon="-0.18437">
        <ele>304.88</ele>
        <time>2012-08-23T09:03:33Z</time>
      </trkpt>
      <trkpt lat="43.34292" lon="-0.18447">
        <ele>303.43</ele>
        <time>2012-08-23T09:03:41Z</time>
      </trkpt>
      <trkpt lat="43.34288" lon="-0.18459">
        <ele>302.95</ele>
        <time>2012-08-23T09:03:49Z</time>
      </trkpt>
      <trkpt lat="43.34289" lon="-0.18473">
        <ele>302.47</ele>
        <time>2012-08-23T09:04:00Z</time>
      </trkpt>
      <trkpt lat="43.34293" lon="-0.18481">
        <ele>301.51</ele>
        <time>2012-08-23T09:09:37Z</time>
      </trkpt>
      <trkpt lat="43.34301" lon="-0.18492">
        <ele>301.03</ele>
        <time>2012-08-23T09:09:45Z</time>
      </trkpt>
      <trkpt lat="43.34308" lon="-0.18502">
        <ele>301.03</ele>
        <time>2012-08-23T09:09:53Z</time>
      </trkpt>
      <trkpt lat="43.34315" lon="-0.18513">
        <ele>300.07</ele>
        <time>2012-08-23T09:10:01Z</time>
      </trkpt>
      <trkpt lat="43.34322" lon="-0.18523">
        <ele>300.07</ele>
        <time>2012-08-23T09:10:09Z</time>
      </trkpt>
      <trkpt lat="43.3433" lon="-0.18533">
        <ele>299.59</ele>
        <time>2012-08-23T09:10:18Z</time>
      </trkpt>
      <trkpt lat="43.34338" lon="-0.18542">
        <ele>300.07</ele>
        <time>2012-08-23T09:10:26Z</time>
      </trkpt>
      <trkpt lat="43.34344" lon="-0.18551">
        <ele>299.59</ele>
        <time>2012-08-23T09:10:38Z</time>
      </trkpt>
      <trkpt lat="43.34352" lon="-0.18557">
        <ele>299.59</ele>
        <time>2012-08-23T09:10:47Z</time>
      </trkpt>
      <trkpt lat="43.34361" lon="-0.18553">
        <ele>299.59</ele>
        <time>2012-08-23T09:10:56Z</time>
      </trkpt>
      <trkpt lat="43.34371" lon="-0.18549">
        <ele>299.59</ele>
        <time>2012-08-23T09:11:05Z</time>
      </trkpt>
      <trkpt lat="43.34381" lon="-0.1854">
        <ele>300.07</ele>
        <time>2012-08-23T09:11:16Z</time>
      </trkpt>
      <trkpt lat="43.34391" lon="-0.18529">
        <ele>300.55</ele>
        <time>2012-08-23T09:11:26Z</time>
      </trkpt>
      <trkpt lat="43.34399" lon="-0.18518">
        <ele>300.55</ele>
        <time>2012-08-23T09:11:35Z</time>
      </trkpt>
      <trkpt lat="43.34403" lon="-0.18508">
        <ele>300.55</ele>
        <time>2012-08-23T09:11:43Z</time>
      </trkpt>
      <trkpt lat="43.34407" lon="-0.18496">
        <ele>301.03</ele>
        <time>2012-08-23T09:11:52Z</time>
      </trkpt>
      <trkpt lat="43.34412" lon="-0.18485">
        <ele>301.51</ele>
        <time>2012-08-23T09:12:02Z</time>
      </trkpt>
      <trkpt lat="43.34411" lon="-0.18483">
        <ele>301.99</ele>
        <time>2012-08-23T09:13:16Z</time>
      </trkpt>
      <trkpt lat="43.34406" lon="-0.18498">
        <ele>301.03</ele>
        <time>2012-08-23T09:13:25Z</time>
      </trkpt>
      <trkpt lat="43.34401" lon="-0.18506">
        <ele>300.55</ele>
        <time>2012-08-23T09:13:43Z</time>
      </trkpt>
      <trkpt lat="43.34396" lon="-0.18517">
        <ele>300.07</ele>
        <time>2012-08-23T09:13:52Z</time>
      </trkpt>
      <trkpt lat="43.34389" lon="-0.18527">
        <ele>300.07</ele>
        <time>2012-08-23T09:14:01Z</time>
      </trkpt>
      <trkpt lat="43.34381" lon="-0.18535">
        <ele>300.55</ele>
        <time>2012-08-23T09:14:10Z</time>
      </trkpt>
      <trkpt lat="43.34372" lon="-0.18542">
        <ele>300.07</ele>
        <time>2012-08-23T09:14:19Z</time>
      </trkpt>
      <trkpt lat="43.34363" lon="-0.18549">
        <ele>300.07</ele>
        <time>2012-08-23T09:14:29Z</time>
      </trkpt>
      <trkpt lat="43.34355" lon="-0.18554">
        <ele>299.59</ele>
        <time>2012-08-23T09:14:38Z</time>
      </trkpt>
      <trkpt lat="43.34347" lon="-0.1856">
        <ele>300.07</ele>
        <time>2012-08-23T09:14:47Z</time>
      </trkpt>
      <trkpt lat="43.34342" lon="-0.1857">
        <ele>300.55</ele>
        <time>2012-08-23T09:14:56Z</time>
      </trkpt>
      <trkpt lat="43.34339" lon="-0.18584">
        <ele>300.55</ele>
        <time>2012-08-23T09:15:09Z</time>
      </trkpt>
      <trkpt lat="43.34343" lon="-0.18594">
        <ele>300.07</ele>
        <time>2012-08-23T09:15:33Z</time>
      </trkpt>
      <trkpt lat="43.34351" lon="-0.18599">
        <ele>300.07</ele>
        <time>2012-08-23T09:15:41Z</time>
      </trkpt>
      <trkpt lat="43.3436" lon="-0.18603">
        <ele>300.07</ele>
        <time>2012-08-23T09:15:49Z</time>
      </trkpt>
      <trkpt lat="43.34369" lon="-0.18607">
        <ele>299.59</ele>
        <time>2012-08-23T09:15:57Z</time>
      </trkpt>
      <trkpt lat="43.34378" lon="-0.18611">
        <ele>299.59</ele>
        <time>2012-08-23T09:16:05Z</time>
      </trkpt>
      <trkpt lat="43.34388" lon="-0.18614">
        <ele>299.59</ele>
        <time>2012-08-23T09:16:13Z</time>
      </trkpt>
      <trkpt lat="43.34398" lon="-0.18616">
        <ele>299.59</ele>
        <time>2012-08-23T09:16:21Z</time>
      </trkpt>
      <trkpt lat="43.34407" lon="-0.1862">
        <ele>299.11</ele>
        <time>2012-08-23T09:16:29Z</time>
      </trkpt>
      <trkpt lat="43.34415" lon="-0.18623">
        <ele>299.59</ele>
        <time>2012-08-23T09:16:37Z</time>
      </trkpt>
      <trkpt lat="43.34425" lon="-0.18627">
        <ele>299.11</ele>
        <time>2012-08-23T09:16:46Z</time>
      </trkpt>
      <trkpt lat="43.34433" lon="-0.18632">
        <ele>298.63</ele>
        <time>2012-08-23T09:16:55Z</time>
      </trkpt>
      <trkpt lat="43.34441" lon="-0.1864">
        <ele>298.15</ele>
        <time>2012-08-23T09:17:03Z</time>
      </trkpt>
      <trkpt lat="43.34446" lon="-0.18652">
        <ele>298.15</ele>
        <time>2012-08-23T09:17:12Z</time>
      </trkpt>
      <trkpt lat="43.34449" lon="-0.18665">
        <ele>298.15</ele>
        <time>2012-08-23T09:17:21Z</time>
      </trkpt>
      <trkpt lat="43.34453" lon="-0.18679">
        <ele>297.67</ele>
        <time>2012-08-23T09:17:30Z</time>
      </trkpt>
      <trkpt lat="43.34456" lon="-0.18693">
        <ele>298.15</ele>
        <time>2012-08-23T09:17:38Z</time>
      </trkpt>
      <trkpt lat="43.34461" lon="-0.18704">
        <ele>297.67</ele>
        <time>2012-08-23T09:17:46Z</time>
      </trkpt>
      <trkpt lat="43.34468" lon="-0.18714">
        <ele>298.15</ele>
        <time>2012-08-23T09:17:54Z</time>
      </trkpt>
      <trkpt lat="43.34476" lon="-0.18723">
        <ele>298.15</ele>
        <time>2012-08-23T09:18:03Z</time>
      </trkpt>
      <trkpt lat="43.34483" lon="-0.18733">
        <ele>298.15</ele>
        <time>2012-08-23T09:18:11Z</time>
      </trkpt>
      <trkpt lat="43.34491" lon="-0.18741">
        <ele>298.63</ele>
        <time>2012-08-23T09:18:20Z</time>
      </trkpt>
      <trkpt lat="43.34502" lon="-0.18745">
        <ele>299.11</ele>
        <time>2012-08-23T09:18:29Z</time>
      </trkpt>
      <trkpt lat="43.34513" lon="-0.18744">
        <ele>299.59</ele>
        <time>2012-08-23T09:18:38Z</time>
      </trkpt>
      <trkpt lat="43.34522" lon="-0.18741">
        <ele>299.11</ele>
        <time>2012-08-23T09:18:45Z</time>
      </trkpt>
      <trkpt lat="43.34529" lon="-0.18735">
        <ele>299.11</ele>
        <time>2012-08-23T09:18:53Z</time>
      </trkpt>
      <trkpt lat="43.34535" lon="-0.18724">
        <ele>299.59</ele>
        <time>2012-08-23T09:19:04Z</time>
      </trkpt>
      <trkpt lat="43.34539" lon="-0.18713">
        <ele>299.59</ele>
        <time>2012-08-23T09:19:13Z</time>
      </trkpt>
      <trkpt lat="43.34537" lon="-0.18701">
        <ele>298.15</ele>
        <time>2012-08-23T09:19:41Z</time>
      </trkpt>
      <trkpt lat="43.34541" lon="-0.18705">
        <ele>298.63</ele>
        <time>2012-08-23T09:20:32Z</time>
      </trkpt>
      <trkpt lat="43.34547" lon="-0.18696">
        <ele>299.11</ele>
        <time>2012-08-23T09:20:43Z</time>
      </trkpt>
      <trkpt lat="43.34556" lon="-0.18692">
        <ele>298.63</ele>
        <time>2012-08-23T09:20:54Z</time>
      </trkpt>
      <trkpt lat="43.34565" lon="-0.18682">
        <ele>298.63</ele>
        <time>2012-08-23T09:21:04Z</time>
      </trkpt>
      <trkpt lat="43.34573" lon="-0.18672">
        <ele>298.15</ele>
        <time>2012-08-23T09:21:16Z</time>
      </trkpt>
      <trkpt lat="43.34583" lon="-0.18665">
        <ele>298.63</ele>
        <time>2012-08-23T09:21:26Z</time>
      </trkpt>
      <trkpt lat="43.34588" lon="-0.18653">
        <ele>298.63</ele>
        <time>2012-08-23T09:21:38Z</time>
      </trkpt>
      <trkpt lat="43.34597" lon="-0.18642">
        <ele>297.67</ele>
        <time>2012-08-23T09:21:49Z</time>
      </trkpt>
      <trkpt lat="43.34605" lon="-0.18637">
        <ele>298.63</ele>
        <time>2012-08-23T09:21:59Z</time>
      </trkpt>
      <trkpt lat="43.34612" lon="-0.18626">
        <ele>298.15</ele>
        <time>2012-08-23T09:22:10Z</time>
      </trkpt>
      <trkpt lat="43.34621" lon="-0.1862">
        <ele>297.18</ele>
        <time>2012-08-23T09:22:20Z</time>
      </trkpt>
      <trkpt lat="43.34633" lon="-0.1862">
        <ele>297.67</ele>
        <time>2012-08-23T09:22:30Z</time>
      </trkpt>
      <trkpt lat="43.3464" lon="-0.18635">
        <ele>297.67</ele>
        <time>2012-08-23T09:22:41Z</time>
      </trkpt>
      <trkpt lat="43.34651" lon="-0.18643">
        <ele>297.18</ele>
        <time>2012-08-23T09:22:53Z</time>
      </trkpt>
      <trkpt lat="43.3466" lon="-0.18656">
        <ele>297.18</ele>
        <time>2012-08-23T09:23:04Z</time>
      </trkpt>
      <trkpt lat="43.34663" lon="-0.18671">
        <ele>296.7</ele>
        <time>2012-08-23T09:23:15Z</time>
      </trkpt>
      <trkpt lat="43.34662" lon="-0.18686">
        <ele>296.7</ele>
        <time>2012-08-23T09:23:25Z</time>
      </trkpt>
      <trkpt lat="43.34668" lon="-0.18693">
        <ele>296.7</ele>
        <time>2012-08-23T09:23:45Z</time>
      </trkpt>
      <trkpt lat="43.34673" lon="-0.18705">
        <ele>297.18</ele>
        <time>2012-08-23T09:23:55Z</time>
      </trkpt>
      <trkpt lat="43.34681" lon="-0.18715">
        <ele>297.67</ele>
        <time>2012-08-23T09:24:05Z</time>
      </trkpt>
      <trkpt lat="43.34687" lon="-0.18723">
        <ele>297.67</ele>
        <time>2012-08-23T09:24:14Z</time>
      </trkpt>
      <trkpt lat="43.34695" lon="-0.1873">
        <ele>297.67</ele>
        <time>2012-08-23T09:24:24Z</time>
      </trkpt>
      <trkpt lat="43.34703" lon="-0.18736">
        <ele>297.67</ele>
        <time>2012-08-23T09:24:33Z</time>
      </trkpt>
      <trkpt lat="43.34712" lon="-0.1874">
        <ele>296.7</ele>
        <time>2012-08-23T09:24:42Z</time>
      </trkpt>
      <trkpt lat="43.34721" lon="-0.18744">
        <ele>297.18</ele>
        <time>2012-08-23T09:24:51Z</time>
      </trkpt>
      <trkpt lat="43.34729" lon="-0.18744">
        <ele>296.7</ele>
        <time>2012-08-23T09:25:21Z</time>
      </trkpt>
      <trkpt lat="43.34737" lon="-0.18743">
        <ele>296.7</ele>
        <time>2012-08-23T09:26:07Z</time>
      </trkpt>
      <trkpt lat="43.34747" lon="-0.1874">
        <ele>296.7</ele>
        <time>2012-08-23T09:26:15Z</time>
      </trkpt>
      <trkpt lat="43.34756" lon="-0.18733">
        <ele>296.7</ele>
        <time>2012-08-23T09:26:24Z</time>
      </trkpt>
      <trkpt lat="43.34764" lon="-0.18725">
        <ele>296.7</ele>
        <time>2012-08-23T09:26:33Z</time>
      </trkpt>
      <trkpt lat="43.34771" lon="-0.18718">
        <ele>296.7</ele>
        <time>2012-08-23T09:26:42Z</time>
      </trkpt>
      <trkpt lat="43.34779" lon="-0.18714">
        <ele>296.22</ele>
        <time>2012-08-23T09:26:51Z</time>
      </trkpt>
      <trkpt lat="43.34789" lon="-0.18715">
        <ele>295.74</ele>
        <time>2012-08-23T09:27:00Z</time>
      </trkpt>
      <trkpt lat="43.34799" lon="-0.18718">
        <ele>296.22</ele>
        <time>2012-08-23T09:27:09Z</time>
      </trkpt>
      <trkpt lat="43.34808" lon="-0.18723">
        <ele>295.74</ele>
        <time>2012-08-23T09:27:18Z</time>
      </trkpt>
      <trkpt lat="43.34817" lon="-0.18729">
        <ele>295.74</ele>
        <time>2012-08-23T09:27:28Z</time>
      </trkpt>
      <trkpt lat="43.34825" lon="-0.18741">
        <ele>295.26</ele>
        <time>2012-08-23T09:27:38Z</time>
      </trkpt>
      <trkpt lat="43.34832" lon="-0.18748">
        <ele>295.74</ele>
        <time>2012-08-23T09:27:47Z</time>
      </trkpt>
      <trkpt lat="43.34839" lon="-0.18755">
        <ele>294.78</ele>
        <time>2012-08-23T09:27:56Z</time>
      </trkpt>
      <trkpt lat="43.34842" lon="-0.18767">
        <ele>295.26</ele>
        <time>2012-08-23T09:28:05Z</time>
      </trkpt>
      <trkpt lat="43.34844" lon="-0.18779">
        <ele>295.26</ele>
        <time>2012-08-23T09:28:14Z</time>
      </trkpt>
      <trkpt lat="43.34843" lon="-0.18792">
        <ele>294.78</ele>
        <time>2012-08-23T09:28:23Z</time>
      </trkpt>
      <trkpt lat="43.34843" lon="-0.18806">
        <ele>294.3</ele>
        <time>2012-08-23T09:28:32Z</time>
      </trkpt>
      <trkpt lat="43.34842" lon="-0.18819">
        <ele>294.78</ele>
        <time>2012-08-23T09:28:41Z</time>
      </trkpt>
      <trkpt lat="43.34841" lon="-0.1883">
        <ele>294.78</ele>
        <time>2012-08-23T09:28:53Z</time>
      </trkpt>
      <trkpt lat="43.3484" lon="-0.18842">
        <ele>294.3</ele>
        <time>2012-08-23T09:29:13Z</time>
      </trkpt>
      <trkpt lat="43.34836" lon="-0.18853">
        <ele>294.3</ele>
        <time>2012-08-23T09:29:22Z</time>
      </trkpt>
      <trkpt lat="43.34832" lon="-0.18865">
        <ele>294.3</ele>
        <time>2012-08-23T09:29:30Z</time>
      </trkpt>
      <trkpt lat="43.34826" lon="-0.18878">
        <ele>294.3</ele>
        <time>2012-08-23T09:29:39Z</time>
      </trkpt>
      <trkpt lat="43.34822" lon="-0.18889">
        <ele>293.82</ele>
        <time>2012-08-23T09:29:47Z</time>
      </trkpt>
      <trkpt lat="43.34817" lon="-0.18902">
        <ele>293.34</ele>
        <time>2012-08-23T09:29:56Z</time>
      </trkpt>
      <trkpt lat="43.34813" lon="-0.18914">
        <ele>294.3</ele>
        <time>2012-08-23T09:30:04Z</time>
      </trkpt>
      <trkpt lat="43.34809" lon="-0.18925">
        <ele>293.82</ele>
        <time>2012-08-23T09:30:12Z</time>
      </trkpt>
      <trkpt lat="43.34804" lon="-0.18936">
        <ele>293.82</ele>
        <time>2012-08-23T09:30:21Z</time>
      </trkpt>
      <trkpt lat="43.34799" lon="-0.18948">
        <ele>293.34</ele>
        <time>2012-08-23T09:30:30Z</time>
      </trkpt>
      <trkpt lat="43.34795" lon="-0.18958">
        <ele>293.34</ele>
        <time>2012-08-23T09:30:52Z</time>
      </trkpt>
      <trkpt lat="43.34791" lon="-0.1897">
        <ele>293.34</ele>
        <time>2012-08-23T09:31:19Z</time>
      </trkpt>
      <trkpt lat="43.34789" lon="-0.18985">
        <ele>293.34</ele>
        <time>2012-08-23T09:31:28Z</time>
      </trkpt>
      <trkpt lat="43.34788" lon="-0.19">
        <ele>293.34</ele>
        <time>2012-08-23T09:31:37Z</time>
      </trkpt>
      <trkpt lat="43.34786" lon="-0.19015">
        <ele>293.34</ele>
        <time>2012-08-23T09:31:46Z</time>
      </trkpt>
      <trkpt lat="43.34785" lon="-0.1903">
        <ele>293.34</ele>
        <time>2012-08-23T09:31:55Z</time>
      </trkpt>
      <trkpt lat="43.34787" lon="-0.19048">
        <ele>294.3</ele>
        <time>2012-08-23T09:32:06Z</time>
      </trkpt>
      <trkpt lat="43.34794" lon="-0.19062">
        <ele>295.74</ele>
        <time>2012-08-23T09:32:17Z</time>
      </trkpt>
      <trkpt lat="43.348" lon="-0.19076">
        <ele>296.7</ele>
        <time>2012-08-23T09:32:27Z</time>
      </trkpt>
      <trkpt lat="43.34802" lon="-0.19089">
        <ele>296.7</ele>
        <time>2012-08-23T09:32:36Z</time>
      </trkpt>
      <trkpt lat="43.34804" lon="-0.19103">
        <ele>297.18</ele>
        <time>2012-08-23T09:32:45Z</time>
      </trkpt>
      <trkpt lat="43.34805" lon="-0.19116">
        <ele>297.18</ele>
        <time>2012-08-23T09:32:54Z</time>
      </trkpt>
      <trkpt lat="43.34807" lon="-0.19129">
        <ele>297.18</ele>
        <time>2012-08-23T09:33:02Z</time>
      </trkpt>
      <trkpt lat="43.34811" lon="-0.19138">
        <ele>297.18</ele>
        <time>2012-08-23T09:34:07Z</time>
      </trkpt>
      <trkpt lat="43.3482" lon="-0.19148">
        <ele>297.67</ele>
        <time>2012-08-23T09:34:19Z</time>
      </trkpt>
      <trkpt lat="43.34827" lon="-0.19157">
        <ele>297.18</ele>
        <time>2012-08-23T09:34:28Z</time>
      </trkpt>
      <trkpt lat="43.34835" lon="-0.19164">
        <ele>297.67</ele>
        <time>2012-08-23T09:34:36Z</time>
      </trkpt>
      <trkpt lat="43.34842" lon="-0.19171">
        <ele>297.67</ele>
        <time>2012-08-23T09:34:44Z</time>
      </trkpt>
      <trkpt lat="43.3485" lon="-0.19179">
        <ele>297.18</ele>
        <time>2012-08-23T09:34:52Z</time>
      </trkpt>
      <trkpt lat="43.34858" lon="-0.19187">
        <ele>297.18</ele>
        <time>2012-08-23T09:35:00Z</time>
      </trkpt>
      <trkpt lat="43.34865" lon="-0.19195">
        <ele>297.18</ele>
        <time>2012-08-23T09:35:08Z</time>
      </trkpt>
      <trkpt lat="43.34873" lon="-0.19203">
        <ele>296.7</ele>
        <time>2012-08-23T09:35:16Z</time>
      </trkpt>
      <trkpt lat="43.34882" lon="-0.19211">
        <ele>296.7</ele>
        <time>2012-08-23T09:35:24Z</time>
      </trkpt>
      <trkpt lat="43.3489" lon="-0.19216">
        <ele>296.22</ele>
        <time>2012-08-23T09:35:34Z</time>
      </trkpt>
      <trkpt lat="43.34896" lon="-0.19224">
        <ele>296.7</ele>
        <time>2012-08-23T09:35:47Z</time>
      </trkpt>
      <trkpt lat="43.34905" lon="-0.1923">
        <ele>296.22</ele>
        <time>2012-08-23T09:35:55Z</time>
      </trkpt>
      <trkpt lat="43.3491" lon="-0.19241">
        <ele>296.22</ele>
        <time>2012-08-23T09:36:10Z</time>
      </trkpt>
      <trkpt lat="43.34916" lon="-0.19253">
        <ele>296.7</ele>
        <time>2012-08-23T09:36:24Z</time>
      </trkpt>
      <trkpt lat="43.34924" lon="-0.1926">
        <ele>296.22</ele>
        <time>2012-08-23T09:36:32Z</time>
      </trkpt>
      <trkpt lat="43.34931" lon="-0.19269">
        <ele>296.7</ele>
        <time>2012-08-23T09:36:40Z</time>
      </trkpt>
      <trkpt lat="43.34939" lon="-0.19276">
        <ele>296.22</ele>
        <time>2012-08-23T09:36:48Z</time>
      </trkpt>
      <trkpt lat="43.34947" lon="-0.19283">
        <ele>296.22</ele>
        <time>2012-08-23T09:36:56Z</time>
      </trkpt>
      <trkpt lat="43.34955" lon="-0.1929">
        <ele>295.74</ele>
        <time>2012-08-23T09:37:04Z</time>
      </trkpt>
      <trkpt lat="43.34963" lon="-0.19297">
        <ele>295.26</ele>
        <time>2012-08-23T09:37:12Z</time>
      </trkpt>
      <trkpt lat="43.34971" lon="-0.19303">
        <ele>295.26</ele>
        <time>2012-08-23T09:37:24Z</time>
      </trkpt>
      <trkpt lat="43.34978" lon="-0.1931">
        <ele>295.26</ele>
        <time>2012-08-23T09:37:32Z</time>
      </trkpt>
      <trkpt lat="43.34987" lon="-0.19316">
        <ele>295.74</ele>
        <time>2012-08-23T09:37:40Z</time>
      </trkpt>
      <trkpt lat="43.34995" lon="-0.19323">
        <ele>295.74</ele>
        <time>2012-08-23T09:37:48Z</time>
      </trkpt>
      <trkpt lat="43.35002" lon="-0.1933">
        <ele>295.74</ele>
        <time>2012-08-23T09:37:55Z</time>
      </trkpt>
      <trkpt lat="43.35011" lon="-0.19337">
        <ele>296.22</ele>
        <time>2012-08-23T09:38:03Z</time>
      </trkpt>
      <trkpt lat="43.35019" lon="-0.19342">
        <ele>295.74</ele>
        <time>2012-08-23T09:38:10Z</time>
      </trkpt>
      <trkpt lat="43.35028" lon="-0.19346">
        <ele>295.74</ele>
        <time>2012-08-23T09:38:17Z</time>
      </trkpt>
      <trkpt lat="43.35038" lon="-0.19348">
        <ele>294.78</ele>
        <time>2012-08-23T09:38:24Z</time>
      </trkpt>
      <trkpt lat="43.35047" lon="-0.19351">
        <ele>294.78</ele>
        <time>2012-08-23T09:38:32Z</time>
      </trkpt>
      <trkpt lat="43.35057" lon="-0.19354">
        <ele>294.3</ele>
        <time>2012-08-23T09:38:40Z</time>
      </trkpt>
      <trkpt lat="43.35066" lon="-0.19357">
        <ele>294.78</ele>
        <time>2012-08-23T09:38:48Z</time>
      </trkpt>
      <trkpt lat="43.35075" lon="-0.19361">
        <ele>294.78</ele>
        <time>2012-08-23T09:38:56Z</time>
      </trkpt>
      <trkpt lat="43.35084" lon="-0.19364">
        <ele>294.78</ele>
        <time>2012-08-23T09:39:04Z</time>
      </trkpt>
      <trkpt lat="43.35094" lon="-0.19367">
        <ele>294.78</ele>
        <time>2012-08-23T09:39:12Z</time>
      </trkpt>
      <trkpt lat="43.35104" lon="-0.19369">
        <ele>294.3</ele>
        <time>2012-08-23T09:39:20Z</time>
      </trkpt>
      <trkpt lat="43.35114" lon="-0.19372">
        <ele>293.82</ele>
        <time>2012-08-23T09:39:28Z</time>
      </trkpt>
      <trkpt lat="43.35124" lon="-0.19371">
        <ele>293.82</ele>
        <time>2012-08-23T09:39:36Z</time>
      </trkpt>
      <trkpt lat="43.35135" lon="-0.19372">
        <ele>293.82</ele>
        <time>2012-08-23T09:39:45Z</time>
      </trkpt>
      <trkpt lat="43.35144" lon="-0.1937">
        <ele>293.82</ele>
        <time>2012-08-23T09:39:52Z</time>
      </trkpt>
      <trkpt lat="43.35152" lon="-0.19365">
        <ele>294.3</ele>
        <time>2012-08-23T09:40:00Z</time>
      </trkpt>
      <trkpt lat="43.35161" lon="-0.19359">
        <ele>294.3</ele>
        <time>2012-08-23T09:40:08Z</time>
      </trkpt>
      <trkpt lat="43.3517" lon="-0.19356">
        <ele>293.82</ele>
        <time>2012-08-23T09:40:16Z</time>
      </trkpt>
      <trkpt lat="43.35181" lon="-0.19353">
        <ele>293.82</ele>
        <time>2012-08-23T09:40:25Z</time>
      </trkpt>
      <trkpt lat="43.35191" lon="-0.1935">
        <ele>293.34</ele>
        <time>2012-08-23T09:40:33Z</time>
      </trkpt>
      <trkpt lat="43.35199" lon="-0.19347">
        <ele>293.34</ele>
        <time>2012-08-23T09:40:41Z</time>
      </trkpt>
      <trkpt lat="43.35208" lon="-0.19344">
        <ele>293.34</ele>
        <time>2012-08-23T09:40:49Z</time>
      </trkpt>
      <trkpt lat="43.35217" lon="-0.1934">
        <ele>292.86</ele>
        <time>2012-08-23T09:40:57Z</time>
      </trkpt>
      <trkpt lat="43.35226" lon="-0.19339">
        <ele>292.86</ele>
        <time>2012-08-23T09:41:06Z</time>
      </trkpt>
      <trkpt lat="43.35235" lon="-0.19338">
        <ele>292.38</ele>
        <time>2012-08-23T09:41:14Z</time>
      </trkpt>
      <trkpt lat="43.35244" lon="-0.19337">
        <ele>291.42</ele>
        <time>2012-08-23T09:41:22Z</time>
      </trkpt>
      <trkpt lat="43.35253" lon="-0.19335">
        <ele>290.94</ele>
        <time>2012-08-23T09:41:30Z</time>
      </trkpt>
      <trkpt lat="43.35262" lon="-0.19335">
        <ele>290.46</ele>
        <time>2012-08-23T09:41:38Z</time>
      </trkpt>
      <trkpt lat="43.35271" lon="-0.19338">
        <ele>289.97</ele>
        <time>2012-08-23T09:41:46Z</time>
      </trkpt>
      <trkpt lat="43.3528" lon="-0.19345">
        <ele>290.94</ele>
        <time>2012-08-23T09:41:54Z</time>
      </trkpt>
      <trkpt lat="43.35285" lon="-0.19354">
        <ele>290.46</ele>
        <time>2012-08-23T09:42:02Z</time>
      </trkpt>
      <trkpt lat="43.35294" lon="-0.1936">
        <ele>289.97</ele>
        <time>2012-08-23T09:42:11Z</time>
      </trkpt>
      <trkpt lat="43.35302" lon="-0.19366">
        <ele>290.46</ele>
        <time>2012-08-23T09:42:20Z</time>
      </trkpt>
      <trkpt lat="43.3531" lon="-0.1937">
        <ele>290.46</ele>
        <time>2012-08-23T09:42:40Z</time>
      </trkpt>
      <trkpt lat="43.3532" lon="-0.19373">
        <ele>290.46</ele>
        <time>2012-08-23T09:42:49Z</time>
      </trkpt>
      <trkpt lat="43.3533" lon="-0.19376">
        <ele>289.97</ele>
        <time>2012-08-23T09:42:58Z</time>
      </trkpt>
      <trkpt lat="43.35339" lon="-0.19379">
        <ele>289.97</ele>
        <time>2012-08-23T09:43:07Z</time>
      </trkpt>
      <trkpt lat="43.35348" lon="-0.19386">
        <ele>289.97</ele>
        <time>2012-08-23T09:43:18Z</time>
      </trkpt>
      <trkpt lat="43.35357" lon="-0.19391">
        <ele>289.97</ele>
        <time>2012-08-23T09:43:30Z</time>
      </trkpt>
      <trkpt lat="43.35371" lon="-0.19392">
        <ele>290.46</ele>
        <time>2012-08-23T09:43:43Z</time>
      </trkpt>
      <trkpt lat="43.3538" lon="-0.19397">
        <ele>289.01</ele>
        <time>2012-08-23T09:43:54Z</time>
      </trkpt>
      <trkpt lat="43.3539" lon="-0.19396">
        <ele>289.01</ele>
        <time>2012-08-23T09:44:02Z</time>
      </trkpt>
      <trkpt lat="43.35395" lon="-0.19404">
        <ele>289.49</ele>
        <time>2012-08-23T09:44:12Z</time>
      </trkpt>
      <trkpt lat="43.35401" lon="-0.19414">
        <ele>289.01</ele>
        <time>2012-08-23T09:44:21Z</time>
      </trkpt>
      <trkpt lat="43.35407" lon="-0.19423">
        <ele>288.53</ele>
        <time>2012-08-23T09:44:29Z</time>
      </trkpt>
      <trkpt lat="43.35414" lon="-0.19431">
        <ele>289.01</ele>
        <time>2012-08-23T09:44:37Z</time>
      </trkpt>
      <trkpt lat="43.35421" lon="-0.1944">
        <ele>289.01</ele>
        <time>2012-08-23T09:44:46Z</time>
      </trkpt>
      <trkpt lat="43.35428" lon="-0.19451">
        <ele>289.01</ele>
        <time>2012-08-23T09:44:55Z</time>
      </trkpt>
      <trkpt lat="43.35435" lon="-0.19461">
        <ele>289.01</ele>
        <time>2012-08-23T09:45:04Z</time>
      </trkpt>
      <trkpt lat="43.35441" lon="-0.1947">
        <ele>289.01</ele>
        <time>2012-08-23T09:45:12Z</time>
      </trkpt>
      <trkpt lat="43.35448" lon="-0.19478">
        <ele>289.49</ele>
        <time>2012-08-23T09:45:22Z</time>
      </trkpt>
      <trkpt lat="43.35455" lon="-0.19488">
        <ele>289.01</ele>
        <time>2012-08-23T09:45:31Z</time>
      </trkpt>
      <trkpt lat="43.35462" lon="-0.19499">
        <ele>288.53</ele>
        <time>2012-08-23T09:45:41Z</time>
      </trkpt>
      <trkpt lat="43.35469" lon="-0.1951">
        <ele>288.53</ele>
        <time>2012-08-23T09:45:50Z</time>
      </trkpt>
      <trkpt lat="43.35477" lon="-0.19519">
        <ele>288.53</ele>
        <time>2012-08-23T09:45:59Z</time>
      </trkpt>
      <trkpt lat="43.35486" lon="-0.19528">
        <ele>289.01</ele>
        <time>2012-08-23T09:46:09Z</time>
      </trkpt>
      <trkpt lat="43.35495" lon="-0.19535">
        <ele>288.53</ele>
        <time>2012-08-23T09:46:18Z</time>
      </trkpt>
      <trkpt lat="43.35504" lon="-0.19542">
        <ele>288.53</ele>
        <time>2012-08-23T09:46:27Z</time>
      </trkpt>
      <trkpt lat="43.35514" lon="-0.19547">
        <ele>288.53</ele>
        <time>2012-08-23T09:46:36Z</time>
      </trkpt>
      <trkpt lat="43.35524" lon="-0.19552">
        <ele>288.53</ele>
        <time>2012-08-23T09:46:45Z</time>
      </trkpt>
      <trkpt lat="43.35528" lon="-0.19567">
        <ele>288.05</ele>
        <time>2012-08-23T09:46:56Z</time>
      </trkpt>
      <trkpt lat="43.35528" lon="-0.19584">
        <ele>288.53</ele>
        <time>2012-08-23T09:47:06Z</time>
      </trkpt>
      <trkpt lat="43.35528" lon="-0.19601">
        <ele>289.01</ele>
        <time>2012-08-23T09:47:17Z</time>
      </trkpt>
      <trkpt lat="43.35525" lon="-0.19619">
        <ele>289.01</ele>
        <time>2012-08-23T09:47:28Z</time>
      </trkpt>
      <trkpt lat="43.35529" lon="-0.1963">
        <ele>290.46</ele>
        <time>2012-08-23T09:47:38Z</time>
      </trkpt>
      <trkpt lat="43.35537" lon="-0.19635">
        <ele>290.46</ele>
        <time>2012-08-23T09:47:48Z</time>
      </trkpt>
      <trkpt lat="43.35546" lon="-0.19638">
        <ele>289.49</ele>
        <time>2012-08-23T09:47:55Z</time>
      </trkpt>
      <trkpt lat="43.35555" lon="-0.19641">
        <ele>289.01</ele>
        <time>2012-08-23T09:48:03Z</time>
      </trkpt>
      <trkpt lat="43.35564" lon="-0.19647">
        <ele>289.01</ele>
        <time>2012-08-23T09:48:11Z</time>
      </trkpt>
      <trkpt lat="43.35572" lon="-0.19651">
        <ele>289.01</ele>
        <time>2012-08-23T09:48:19Z</time>
      </trkpt>
      <trkpt lat="43.35581" lon="-0.19656">
        <ele>288.53</ele>
        <time>2012-08-23T09:48:27Z</time>
      </trkpt>
      <trkpt lat="43.3559" lon="-0.19659">
        <ele>288.05</ele>
        <time>2012-08-23T09:48:35Z</time>
      </trkpt>
      <trkpt lat="43.35599" lon="-0.19661">
        <ele>288.05</ele>
        <time>2012-08-23T09:48:42Z</time>
      </trkpt>
      <trkpt lat="43.35609" lon="-0.19662">
        <ele>287.57</ele>
        <time>2012-08-23T09:48:50Z</time>
      </trkpt>
      <trkpt lat="43.35619" lon="-0.19663">
        <ele>288.05</ele>
        <time>2012-08-23T09:48:59Z</time>
      </trkpt>
      <trkpt lat="43.35629" lon="-0.19668">
        <ele>289.01</ele>
        <time>2012-08-23T09:49:09Z</time>
      </trkpt>
      <trkpt lat="43.35637" lon="-0.19672">
        <ele>289.49</ele>
        <time>2012-08-23T09:49:17Z</time>
      </trkpt>
      <trkpt lat="43.35645" lon="-0.19672">
        <ele>290.94</ele>
        <time>2012-08-23T09:49:26Z</time>
      </trkpt>
      <trkpt lat="43.35655" lon="-0.1968">
        <ele>291.42</ele>
        <time>2012-08-23T09:49:38Z</time>
      </trkpt>
      <trkpt lat="43.35665" lon="-0.19684">
        <ele>291.42</ele>
        <time>2012-08-23T09:49:47Z</time>
      </trkpt>
      <trkpt lat="43.35675" lon="-0.19688">
        <ele>291.9</ele>
        <time>2012-08-23T09:49:55Z</time>
      </trkpt>
      <trkpt lat="43.35684" lon="-0.19691">
        <ele>292.38</ele>
        <time>2012-08-23T09:50:03Z</time>
      </trkpt>
      <trkpt lat="43.35693" lon="-0.19694">
        <ele>292.38</ele>
        <time>2012-08-23T09:50:11Z</time>
      </trkpt>
      <trkpt lat="43.35702" lon="-0.19697">
        <ele>292.38</ele>
        <time>2012-08-23T09:50:19Z</time>
      </trkpt>
      <trkpt lat="43.35711" lon="-0.19701">
        <ele>292.38</ele>
        <time>2012-08-23T09:50:27Z</time>
      </trkpt>
      <trkpt lat="43.3572" lon="-0.19704">
        <ele>292.86</ele>
        <time>2012-08-23T09:50:34Z</time>
      </trkpt>
      <trkpt lat="43.35729" lon="-0.19706">
        <ele>292.86</ele>
        <time>2012-08-23T09:50:41Z</time>
      </trkpt>
      <trkpt lat="43.35737" lon="-0.1971">
        <ele>292.86</ele>
        <time>2012-08-23T09:50:48Z</time>
      </trkpt>
      <trkpt lat="43.35745" lon="-0.19718">
        <ele>292.38</ele>
        <time>2012-08-23T09:50:56Z</time>
      </trkpt>
      <trkpt lat="43.35752" lon="-0.19727">
        <ele>292.38</ele>
        <time>2012-08-23T09:51:04Z</time>
      </trkpt>
      <trkpt lat="43.35758" lon="-0.19731">
        <ele>292.86</ele>
        <time>2012-08-23T09:51:33Z</time>
      </trkpt>
      <trkpt lat="43.35765" lon="-0.19738">
        <ele>292.38</ele>
        <time>2012-08-23T09:51:42Z</time>
      </trkpt>
      <trkpt lat="43.35773" lon="-0.19747">
        <ele>292.38</ele>
        <time>2012-08-23T09:51:51Z</time>
      </trkpt>
      <trkpt lat="43.35781" lon="-0.1976">
        <ele>292.38</ele>
        <time>2012-08-23T09:52:00Z</time>
      </trkpt>
      <trkpt lat="43.35788" lon="-0.19772">
        <ele>291.9</ele>
        <time>2012-08-23T09:52:09Z</time>
      </trkpt>
      <trkpt lat="43.35798" lon="-0.19776">
        <ele>291.9</ele>
        <time>2012-08-23T09:52:18Z</time>
      </trkpt>
      <trkpt lat="43.35805" lon="-0.19784">
        <ele>291.9</ele>
        <time>2012-08-23T09:52:27Z</time>
      </trkpt>
      <trkpt lat="43.35808" lon="-0.198">
        <ele>291.42</ele>
        <time>2012-08-23T09:52:38Z</time>
      </trkpt>
      <trkpt lat="43.35802" lon="-0.19814">
        <ele>291.42</ele>
        <time>2012-08-23T09:52:47Z</time>
      </trkpt>
      <trkpt lat="43.35794" lon="-0.19827">
        <ele>291.42</ele>
        <time>2012-08-23T09:52:57Z</time>
      </trkpt>
      <trkpt lat="43.35802" lon="-0.19834">
        <ele>290.94</ele>
        <time>2012-08-23T09:53:05Z</time>
      </trkpt>
      <trkpt lat="43.3581" lon="-0.19839">
        <ele>290.94</ele>
        <time>2012-08-23T09:53:13Z</time>
      </trkpt>
      <trkpt lat="43.35819" lon="-0.19843">
        <ele>290.94</ele>
        <time>2012-08-23T09:53:22Z</time>
      </trkpt>
      <trkpt lat="43.35828" lon="-0.19844">
        <ele>290.94</ele>
        <time>2012-08-23T09:53:30Z</time>
      </trkpt>
      <trkpt lat="43.35836" lon="-0.19848">
        <ele>290.94</ele>
        <time>2012-08-23T09:53:38Z</time>
      </trkpt>
      <trkpt lat="43.35846" lon="-0.19852">
        <ele>290.94</ele>
        <time>2012-08-23T09:53:46Z</time>
      </trkpt>
      <trkpt lat="43.35855" lon="-0.19856">
        <ele>290.94</ele>
        <time>2012-08-23T09:53:54Z</time>
      </trkpt>
      <trkpt lat="43.35862" lon="-0.19861">
        <ele>290.94</ele>
        <time>2012-08-23T09:54:01Z</time>
      </trkpt>
      <trkpt lat="43.3587" lon="-0.19864">
        <ele>290.94</ele>
        <time>2012-08-23T09:54:08Z</time>
      </trkpt>
      <trkpt lat="43.35879" lon="-0.19868">
        <ele>290.46</ele>
        <time>2012-08-23T09:54:16Z</time>
      </trkpt>
      <trkpt lat="43.35887" lon="-0.1987">
        <ele>289.97</ele>
        <time>2012-08-23T09:54:24Z</time>
      </trkpt>
      <trkpt lat="43.35897" lon="-0.19872">
        <ele>289.97</ele>
        <time>2012-08-23T09:54:33Z</time>
      </trkpt>
      <trkpt lat="43.35909" lon="-0.19873">
        <ele>289.97</ele>
        <time>2012-08-23T09:54:42Z</time>
      </trkpt>
      <trkpt lat="43.3592" lon="-0.19874">
        <ele>289.97</ele>
        <time>2012-08-23T09:54:52Z</time>
      </trkpt>
      <trkpt lat="43.35932" lon="-0.19875">
        <ele>289.49</ele>
        <time>2012-08-23T09:55:03Z</time>
      </trkpt>
      <trkpt lat="43.35943" lon="-0.1988">
        <ele>289.97</ele>
        <time>2012-08-23T09:55:13Z</time>
      </trkpt>
      <trkpt lat="43.35951" lon="-0.19884">
        <ele>289.97</ele>
        <time>2012-08-23T09:55:21Z</time>
      </trkpt>
      <trkpt lat="43.3596" lon="-0.19891">
        <ele>289.97</ele>
        <time>2012-08-23T09:55:31Z</time>
      </trkpt>
      <trkpt lat="43.35968" lon="-0.19897">
        <ele>290.46</ele>
        <time>2012-08-23T09:55:41Z</time>
      </trkpt>
      <trkpt lat="43.35977" lon="-0.19905">
        <ele>289.97</ele>
        <time>2012-08-23T09:55:50Z</time>
      </trkpt>
      <trkpt lat="43.35983" lon="-0.19914">
        <ele>290.46</ele>
        <time>2012-08-23T09:55:59Z</time>
      </trkpt>
      <trkpt lat="43.35991" lon="-0.19924">
        <ele>290.46</ele>
        <time>2012-08-23T09:56:09Z</time>
      </trkpt>
      <trkpt lat="43.36" lon="-0.19928">
        <ele>289.49</ele>
        <time>2012-08-23T10:00:42Z</time>
      </trkpt>
      <trkpt lat="43.3601" lon="-0.19923">
        <ele>289.49</ele>
        <time>2012-08-23T10:00:50Z</time>
      </trkpt>
      <trkpt lat="43.36018" lon="-0.19915">
        <ele>289.49</ele>
        <time>2012-08-23T10:00:58Z</time>
      </trkpt>
      <trkpt lat="43.36026" lon="-0.19908">
        <ele>289.01</ele>
        <time>2012-08-23T10:01:06Z</time>
      </trkpt>
      <trkpt lat="43.36032" lon="-0.19899">
        <ele>288.53</ele>
        <time>2012-08-23T10:01:15Z</time>
      </trkpt>
      <trkpt lat="43.36039" lon="-0.19896">
        <ele>288.53</ele>
        <time>2012-08-23T10:01:35Z</time>
      </trkpt>
      <trkpt lat="43.36048" lon="-0.19892">
        <ele>289.01</ele>
        <time>2012-08-23T10:01:46Z</time>
      </trkpt>
      <trkpt lat="43.36061" lon="-0.19889">
        <ele>289.01</ele>
        <time>2012-08-23T10:01:55Z</time>
      </trkpt>
      <trkpt lat="43.36074" lon="-0.19886">
        <ele>288.53</ele>
        <time>2012-08-23T10:02:06Z</time>
      </trkpt>
      <trkpt lat="43.36085" lon="-0.1988">
        <ele>287.57</ele>
        <time>2012-08-23T10:02:15Z</time>
      </trkpt>
      <trkpt lat="43.36095" lon="-0.19872">
        <ele>287.57</ele>
        <time>2012-08-23T10:02:24Z</time>
      </trkpt>
      <trkpt lat="43.36107" lon="-0.19869">
        <ele>287.09</ele>
        <time>2012-08-23T10:02:33Z</time>
      </trkpt>
      <trkpt lat="43.36118" lon="-0.19871">
        <ele>286.61</ele>
        <time>2012-08-23T10:02:41Z</time>
      </trkpt>
      <trkpt lat="43.36128" lon="-0.19873">
        <ele>286.61</ele>
        <time>2012-08-23T10:02:49Z</time>
      </trkpt>
      <trkpt lat="43.36139" lon="-0.19875">
        <ele>286.61</ele>
        <time>2012-08-23T10:02:57Z</time>
      </trkpt>
      <trkpt lat="43.36148" lon="-0.19878">
        <ele>286.13</ele>
        <time>2012-08-23T10:03:05Z</time>
      </trkpt>
      <trkpt lat="43.36158" lon="-0.19888">
        <ele>285.65</ele>
        <time>2012-08-23T10:03:15Z</time>
      </trkpt>
      <trkpt lat="43.36164" lon="-0.19897">
        <ele>285.65</ele>
        <time>2012-08-23T10:03:22Z</time>
      </trkpt>
      <trkpt lat="43.36171" lon="-0.19908">
        <ele>285.65</ele>
        <time>2012-08-23T10:03:30Z</time>
      </trkpt>
      <trkpt lat="43.36178" lon="-0.19917">
        <ele>285.65</ele>
        <time>2012-08-23T10:03:37Z</time>
      </trkpt>
      <trkpt lat="43.36186" lon="-0.19926">
        <ele>285.17</ele>
        <time>2012-08-23T10:03:45Z</time>
      </trkpt>
      <trkpt lat="43.36191" lon="-0.19937">
        <ele>285.17</ele>
        <time>2012-08-23T10:03:53Z</time>
      </trkpt>
      <trkpt lat="43.36197" lon="-0.19949">
        <ele>284.69</ele>
        <time>2012-08-23T10:04:01Z</time>
      </trkpt>
      <trkpt lat="43.36205" lon="-0.19958">
        <ele>285.17</ele>
        <time>2012-08-23T10:04:09Z</time>
      </trkpt>
      <trkpt lat="43.36213" lon="-0.19966">
        <ele>284.69</ele>
        <time>2012-08-23T10:04:17Z</time>
      </trkpt>
      <trkpt lat="43.36221" lon="-0.19973">
        <ele>284.69</ele>
        <time>2012-08-23T10:04:24Z</time>
      </trkpt>
      <trkpt lat="43.3623" lon="-0.1998">
        <ele>285.17</ele>
        <time>2012-08-23T10:04:32Z</time>
      </trkpt>
      <trkpt lat="43.36239" lon="-0.19986">
        <ele>284.21</ele>
        <time>2012-08-23T10:04:40Z</time>
      </trkpt>
      <trkpt lat="43.36247" lon="-0.19991">
        <ele>284.21</ele>
        <time>2012-08-23T10:04:47Z</time>
      </trkpt>
      <trkpt lat="43.36256" lon="-0.19995">
        <ele>283.73</ele>
        <time>2012-08-23T10:04:55Z</time>
      </trkpt>
      <trkpt lat="43.36266" lon="-0.20002">
        <ele>283.73</ele>
        <time>2012-08-23T10:05:04Z</time>
      </trkpt>
      <trkpt lat="43.36276" lon="-0.20006">
        <ele>283.73</ele>
        <time>2012-08-23T10:05:12Z</time>
      </trkpt>
      <trkpt lat="43.36286" lon="-0.20011">
        <ele>283.73</ele>
        <time>2012-08-23T10:05:22Z</time>
      </trkpt>
      <trkpt lat="43.36298" lon="-0.20019">
        <ele>283.73</ele>
        <time>2012-08-23T10:05:32Z</time>
      </trkpt>
      <trkpt lat="43.36307" lon="-0.20025">
        <ele>283.73</ele>
        <time>2012-08-23T10:05:40Z</time>
      </trkpt>
      <trkpt lat="43.36319" lon="-0.20033">
        <ele>283.73</ele>
        <time>2012-08-23T10:05:50Z</time>
      </trkpt>
      <trkpt lat="43.36328" lon="-0.20039">
        <ele>283.73</ele>
        <time>2012-08-23T10:05:59Z</time>
      </trkpt>
      <trkpt lat="43.36337" lon="-0.20046">
        <ele>284.21</ele>
        <time>2012-08-23T10:06:07Z</time>
      </trkpt>
      <trkpt lat="43.36344" lon="-0.20052">
        <ele>284.21</ele>
        <time>2012-08-23T10:06:15Z</time>
      </trkpt>
      <trkpt lat="43.36353" lon="-0.20057">
        <ele>283.73</ele>
        <time>2012-08-23T10:06:29Z</time>
      </trkpt>
      <trkpt lat="43.36359" lon="-0.20067">
        <ele>283.73</ele>
        <time>2012-08-23T10:06:38Z</time>
      </trkpt>
      <trkpt lat="43.36363" lon="-0.20079">
        <ele>284.21</ele>
        <time>2012-08-23T10:06:48Z</time>
      </trkpt>
      <trkpt lat="43.36363" lon="-0.20091">
        <ele>284.21</ele>
        <time>2012-08-23T10:07:00Z</time>
      </trkpt>
      <trkpt lat="43.36364" lon="-0.20104">
        <ele>284.21</ele>
        <time>2012-08-23T10:07:09Z</time>
      </trkpt>
      <trkpt lat="43.36371" lon="-0.20114">
        <ele>284.69</ele>
        <time>2012-08-23T10:07:20Z</time>
      </trkpt>
      <trkpt lat="43.36377" lon="-0.20122">
        <ele>284.69</ele>
        <time>2012-08-23T10:07:54Z</time>
      </trkpt>
      <trkpt lat="43.36385" lon="-0.20128">
        <ele>284.21</ele>
        <time>2012-08-23T10:09:13Z</time>
      </trkpt>
      <trkpt lat="43.36395" lon="-0.20128">
        <ele>284.21</ele>
        <time>2012-08-23T10:09:23Z</time>
      </trkpt>
      <trkpt lat="43.36404" lon="-0.20125">
        <ele>284.21</ele>
        <time>2012-08-23T10:09:32Z</time>
      </trkpt>
      <trkpt lat="43.36413" lon="-0.20121">
        <ele>284.21</ele>
        <time>2012-08-23T10:09:40Z</time>
      </trkpt>
      <trkpt lat="43.36423" lon="-0.20116">
        <ele>284.21</ele>
        <time>2012-08-23T10:09:49Z</time>
      </trkpt>
      <trkpt lat="43.36433" lon="-0.20112">
        <ele>283.73</ele>
        <time>2012-08-23T10:09:57Z</time>
      </trkpt>
      <trkpt lat="43.36442" lon="-0.20108">
        <ele>283.25</ele>
        <time>2012-08-23T10:10:05Z</time>
      </trkpt>
      <trkpt lat="43.36452" lon="-0.20104">
        <ele>282.28</ele>
        <time>2012-08-23T10:10:13Z</time>
      </trkpt>
      <trkpt lat="43.36461" lon="-0.20101">
        <ele>281.8</ele>
        <time>2012-08-23T10:10:22Z</time>
      </trkpt>
      <trkpt lat="43.36471" lon="-0.20097">
        <ele>282.28</ele>
        <time>2012-08-23T10:10:30Z</time>
      </trkpt>
      <trkpt lat="43.36481" lon="-0.20094">
        <ele>281.8</ele>
        <time>2012-08-23T10:10:38Z</time>
      </trkpt>
      <trkpt lat="43.3649" lon="-0.20093">
        <ele>281.32</ele>
        <time>2012-08-23T10:10:46Z</time>
      </trkpt>
      <trkpt lat="43.36499" lon="-0.20097">
        <ele>280.84</ele>
        <time>2012-08-23T10:10:54Z</time>
      </trkpt>
      <trkpt lat="43.36507" lon="-0.20101">
        <ele>280.84</ele>
        <time>2012-08-23T10:11:02Z</time>
      </trkpt>
      <trkpt lat="43.36515" lon="-0.20106">
        <ele>280.84</ele>
        <time>2012-08-23T10:11:10Z</time>
      </trkpt>
      <trkpt lat="43.36524" lon="-0.20111">
        <ele>280.84</ele>
        <time>2012-08-23T10:11:18Z</time>
      </trkpt>
      <trkpt lat="43.36535" lon="-0.20111">
        <ele>281.32</ele>
        <time>2012-08-23T10:11:27Z</time>
      </trkpt>
      <trkpt lat="43.36541" lon="-0.20098">
        <ele>280.84</ele>
        <time>2012-08-23T10:11:36Z</time>
      </trkpt>
      <trkpt lat="43.36544" lon="-0.20091">
        <ele>280.36</ele>
        <time>2012-08-23T10:11:49Z</time>
      </trkpt>
      <trkpt lat="43.3655" lon="-0.20081">
        <ele>280.36</ele>
        <time>2012-08-23T10:11:57Z</time>
      </trkpt>
      <trkpt lat="43.36558" lon="-0.20072">
        <ele>279.88</ele>
        <time>2012-08-23T10:12:05Z</time>
      </trkpt>
      <trkpt lat="43.36566" lon="-0.20063">
        <ele>279.4</ele>
        <time>2012-08-23T10:12:13Z</time>
      </trkpt>
      <trkpt lat="43.36573" lon="-0.20056">
        <ele>278.92</ele>
        <time>2012-08-23T10:12:21Z</time>
      </trkpt>
      <trkpt lat="43.36581" lon="-0.20049">
        <ele>278.44</ele>
        <time>2012-08-23T10:12:29Z</time>
      </trkpt>
      <trkpt lat="43.3659" lon="-0.20041">
        <ele>278.44</ele>
        <time>2012-08-23T10:12:37Z</time>
      </trkpt>
      <trkpt lat="43.36597" lon="-0.20034">
        <ele>277.96</ele>
        <time>2012-08-23T10:12:45Z</time>
      </trkpt>
      <trkpt lat="43.36607" lon="-0.20027">
        <ele>277.96</ele>
        <time>2012-08-23T10:12:54Z</time>
      </trkpt>
      <trkpt lat="43.36615" lon="-0.20019">
        <ele>277.48</ele>
        <time>2012-08-23T10:13:02Z</time>
      </trkpt>
      <trkpt lat="43.36624" lon="-0.20012">
        <ele>277.96</ele>
        <time>2012-08-23T10:13:10Z</time>
      </trkpt>
      <trkpt lat="43.36632" lon="-0.20005">
        <ele>278.44</ele>
        <time>2012-08-23T10:13:18Z</time>
      </trkpt>
      <trkpt lat="43.3664" lon="-0.19997">
        <ele>277.96</ele>
        <time>2012-08-23T10:13:26Z</time>
      </trkpt>
      <trkpt lat="43.36647" lon="-0.1999">
        <ele>277.96</ele>
        <time>2012-08-23T10:13:35Z</time>
      </trkpt>
      <trkpt lat="43.36655" lon="-0.19984">
        <ele>277.96</ele>
        <time>2012-08-23T10:13:44Z</time>
      </trkpt>
      <trkpt lat="43.36663" lon="-0.19975">
        <ele>277.96</ele>
        <time>2012-08-23T10:13:52Z</time>
      </trkpt>
      <trkpt lat="43.36671" lon="-0.19965">
        <ele>278.44</ele>
        <time>2012-08-23T10:14:00Z</time>
      </trkpt>
      <trkpt lat="43.36679" lon="-0.19956">
        <ele>277.96</ele>
        <time>2012-08-23T10:14:07Z</time>
      </trkpt>
      <trkpt lat="43.36688" lon="-0.19947">
        <ele>278.44</ele>
        <time>2012-08-23T10:14:15Z</time>
      </trkpt>
      <trkpt lat="43.36694" lon="-0.19935">
        <ele>278.44</ele>
        <time>2012-08-23T10:14:23Z</time>
      </trkpt>
      <trkpt lat="43.36693" lon="-0.19921">
        <ele>277.96</ele>
        <time>2012-08-23T10:14:31Z</time>
      </trkpt>
      <trkpt lat="43.36688" lon="-0.19909">
        <ele>277.96</ele>
        <time>2012-08-23T10:14:39Z</time>
      </trkpt>
      <trkpt lat="43.36681" lon="-0.199">
        <ele>277.96</ele>
        <time>2012-08-23T10:14:46Z</time>
      </trkpt>
      <trkpt lat="43.36672" lon="-0.19894">
        <ele>277.96</ele>
        <time>2012-08-23T10:14:54Z</time>
      </trkpt>
      <trkpt lat="43.36662" lon="-0.1989">
        <ele>277.96</ele>
        <time>2012-08-23T10:15:02Z</time>
      </trkpt>
    </trkseg>
  </trk>
</gpx>